TU750 / TS-IMP 7700 Squawk Report (16th of January, 2018)

Aircraft A320 Reg No. TS-IMP Age 16 years old
Model A320 Jet engines 2 First flight 10-01-02
Registered 01-07-16 Rollout 01-02 Delivered 03-06-02
Construction No. 1700 Line No. N/A Series 211
ADSHEX 02A18F Airline name Royal Air Maroc Owner N/A
Airfield based Casablanca-Mohammed V~ ~CN First tracked 2011-10-20 07:16:01

Flight history for TS-IMP

Route Flight No Date Playback
Orly (ORY) - Carthage (TUN) TU725 2018-05-25 07:11:00
Carthage (TUN) - Orly (ORY) TU724 2018-05-25 06:09:00
Provence (MRS) - Carthage (TUN) TU903 2018-05-24 18:44:00
Carthage (TUN) - Provence (MRS) TU902 2018-05-24 12:57:00
Provence (MRS) - Carthage (TUN) TU931 2018-05-24 11:37:00
Carthage (TUN) - Provence (MRS) TU930 2018-05-24 09:07:00
Mohamed Boudiaf Intl (CZL) - Carthage (TUN) TU611 2018-05-22 17:45:00
Carthage (TUN) - Mohamed Boudiaf Intl (CZL) TU610 2018-05-22 17:32:00
Frankfurt Main (FRA) - Carthage (TUN) TU745 2018-05-21 14:59:00
Carthage (TUN) - Frankfurt Main (FRA) TU744 2018-05-21 11:43:00
Orly (ORY) - Carthage (TUN) TU725 2018-05-21 09:32:00
Carthage (TUN) - Orly (ORY) TU724 2018-05-21 06:00:00
Houari Boumediene (ALG) - Carthage (TUN) TU375 2018-05-20 17:26:00
Carthage (TUN) - Houari Boumediene (ALG) TU374 2018-05-20 17:08:00
Malpensa (MXP) - Carthage (TUN) TU757 2018-05-20 13:02:00
Carthage (TUN) - Malpensa (MXP) TU756 2018-05-20 10:00:00
Orly (ORY) - Carthage (TUN) TU723 2018-05-19 19:49:00
Carthage (TUN) - Orly (ORY) TU722 2018-05-19 16:48:00
Mohammed V Intl (CMN) - Carthage (TUN) TU712 2018-05-19 14:45:00
Carthage (TUN) - Mohammed V Intl (CMN) TU711 2018-05-19 09:39:00
Time Lat Lon Altitude Heading Speed Vertical Rate
2018-01-16 10:23:48 GMT 45.73824 5.09149 900 174 126 -768
2018-01-16 10:23:39 GMT 45.74400 5.09079 1,000 175 126 -704
2018-01-16 10:23:28 GMT 45.75000 5.09010 1,125 175 126 -640
2018-01-16 10:23:17 GMT 45.75643 5.08928 1,250 175 126 -448
2018-01-16 10:23:07 GMT 45.76236 5.08855 1,350 175 131 -704
2018-01-16 10:22:56 GMT 45.76886 5.08774 1,500 176 139 -896
2018-01-16 10:22:46 GMT 45.77547 5.08701 1,650 175 148 -512
2018-01-16 10:22:36 GMT 45.78360 5.08607 1,775 175 164 -768
2018-01-16 10:22:25 GMT 45.79102 5.08513 1,950 175 175 -960
2018-01-16 10:22:16 GMT 45.79953 5.08406 2,100 175 186 -1344
2018-01-16 10:22:04 GMT 45.80889 5.08310 2,325 175 184 -576
2018-01-16 10:21:55 GMT 45.81783 5.08214 2,450 176 196 -1088
2018-01-16 10:21:44 GMT 45.82741 5.08124 2,650 177 197 -1216
2018-01-16 10:21:33 GMT 45.83684 5.08078 2,875 178 197 -960
2018-01-16 10:21:26 GMT 45.84357 5.08063 2,975 181 198 -704
2018-01-16 10:21:23 GMT 45.84622 5.08071 2,975 182 200 -256
2018-01-16 10:21:17 GMT 45.85191 5.08111 2,975 186 205 -320
2018-01-16 10:21:13 GMT 45.85588 5.08178 3,000 192 207 0
2018-01-16 10:21:05 GMT 45.86366 5.08426 3,025 194 204 -704
2018-01-16 10:21:03 GMT 45.86613 5.08513 3,000 194 204 320
2018-01-16 10:20:54 GMT 45.87327 5.08777 3,025 203 203 0
2018-01-16 10:20:52 GMT 45.87538 5.08868 3,000 199 204 64
2018-01-16 10:20:46 GMT 45.88044 5.09134 3,000 206 202 -128
2018-01-16 10:20:42 GMT 45.88417 5.09402 3,025 215 200 -192
2018-01-16 10:20:37 GMT 45.88766 5.09738 3,025 216 202 64
2018-01-16 10:20:31 GMT 45.89222 5.10212 3,025 217 205 192
2018-01-16 10:20:26 GMT 45.89585 5.10610 3,025 219 211 320
2018-01-16 10:20:20 GMT 45.90010 5.11146 3,000 229 217 0
2018-01-16 10:20:17 GMT 45.90265 5.11578 3,000 236 219 0
2018-01-16 10:20:10 GMT 45.90572 5.12382 3,000 251 227 192
2018-01-16 10:20:05 GMT 45.90747 5.13202 3,000 266 236 -320
2018-01-16 10:20:00 GMT 45.90797 5.13939 3,000 271 241 -576
2018-01-16 10:19:53 GMT 45.90726 5.15252 3,025 279 241 192
2018-01-16 10:19:49 GMT 45.90684 5.15636 3,000 284 244 -64
2018-01-16 10:19:40 GMT 45.90251 5.17230 3,000 305 251 192
2018-01-16 10:19:29 GMT 45.89488 5.18508 3,025 324 259 -768
2018-01-16 10:19:18 GMT 45.88403 5.19446 3,175 336 258 -1536
2018-01-16 10:19:11 GMT 45.87611 5.19968 3,325 336 258 -1408
2018-01-16 10:19:09 GMT 45.87172 5.20256 3,400 336 256 -1408
2018-01-16 10:19:05 GMT 45.86829 5.20484 3,500 336 256 -1664
2018-01-16 10:18:57 GMT 45.86140 5.20930 3,675 336 254 -1536
2018-01-16 10:18:54 GMT 45.85814 5.21150 3,725 336 253 -1472
2018-01-16 10:18:48 GMT 45.85098 5.21616 3,875 336 252 -1024
2018-01-16 10:18:45 GMT 45.84720 5.21858 3,950 337 251 -1088
2018-01-16 10:18:37 GMT 45.83977 5.22333 4,000 337 251 -128
2018-01-16 10:18:34 GMT 45.83664 5.22530 4,000 336 252 128
2018-01-16 10:18:27 GMT 45.82863 5.23045 4,000 337 251 -128
2018-01-16 10:18:21 GMT 45.82274 5.23418 4,000 337 251 -320
2018-01-16 10:18:16 GMT 45.81750 5.23746 4,000 337 251 128
2018-01-16 10:18:12 GMT 45.81189 5.24101 4,000 337 252 -384
2018-01-16 10:18:05 GMT 45.80563 5.24494 4,000 337 253 64
2018-01-16 10:18:03 GMT 45.80223 5.24704 4,025 337 253 -512
2018-01-16 10:17:55 GMT 45.79509 5.25153 4,025 337 256 -64
2018-01-16 10:17:52 GMT 45.79106 5.25414 4,025 336 256 0
2018-01-16 10:17:45 GMT 45.78378 5.25883 4,025 336 261 64
2018-01-16 10:17:42 GMT 45.77934 5.26171 4,000 336 265 0
2018-01-16 10:17:35 GMT 45.77226 5.26637 4,000 336 274 64
2018-01-16 10:17:30 GMT 45.76732 5.26966 3,975 336 280 64
2018-01-16 10:17:24 GMT 45.75993 5.27458 3,975 335 287 -64
2018-01-16 10:17:20 GMT 45.75471 5.27806 3,975 335 292 -384
2018-01-16 10:17:13 GMT 45.74661 5.28360 4,025 335 294 -384
2018-01-16 10:17:10 GMT 45.74130 5.28717 4,075 335 293 -768
2018-01-16 10:17:03 GMT 45.73393 5.29213 4,150 335 292 -1152
2018-01-16 10:16:58 GMT 45.72826 5.29595 4,250 336 292 -1216
2018-01-16 10:16:52 GMT 45.72052 5.30104 4,400 336 291 -1408
2018-01-16 10:16:49 GMT 45.71542 5.30441 4,475 336 292 -1344
2018-01-16 10:16:43 GMT 45.70958 5.30821 4,575 336 293 -1280
2018-01-16 10:16:38 GMT 45.70271 5.31271 4,700 336 294 -1216
2018-01-16 10:16:32 GMT 45.69511 5.31765 4,825 336 296 -1152
2018-01-16 10:16:28 GMT 45.68903 5.32160 4,925 336 296 -832
2018-01-16 10:16:23 GMT 45.68325 5.32535 4,975 336 298 -320
2018-01-16 10:16:17 GMT 45.67630 5.32991 5,000 336 298 64
2018-01-16 10:16:12 GMT 45.67026 5.33386 5,000 336 297 64
2018-01-16 10:16:06 GMT 45.66262 5.33894 5,000 335 297 -128
2018-01-16 10:16:02 GMT 45.65746 5.34238 5,000 336 296 -192
2018-01-16 10:15:56 GMT 45.64940 5.34773 5,025 336 292 -256
2018-01-16 10:15:51 GMT 45.64442 5.35096 5,050 336 290 -640
2018-01-16 10:15:44 GMT 45.63647 5.35610 5,150 336 288 -1280
2018-01-16 10:15:41 GMT 45.63167 5.35918 5,250 336 287 -1600
2018-01-16 10:15:35 GMT 45.62370 5.36434 5,425 336 286 -2112
2018-01-16 10:15:31 GMT 45.61935 5.36716 5,575 336 284 -2368
2018-01-16 10:15:23 GMT 45.61102 5.37245 5,875 336 280 -2496
2018-01-16 10:15:20 GMT 45.60690 5.37513 6,025 336 279 -2176
2018-01-16 10:15:13 GMT 45.59866 5.38035 6,275 336 278 -2112
2018-01-16 10:15:08 GMT 45.59285 5.38410 6,450 336 277 -2048
2018-01-16 10:15:03 GMT 45.58581 5.38866 6,650 336 277 -1856
2018-01-16 10:15:00 GMT 45.58251 5.39085 6,750 336 277 -1792
2018-01-16 10:14:54 GMT 45.57669 5.39463 6,900 336 276 -1920
2018-01-16 10:14:51 GMT 45.57310 5.39696 6,975 336 276 -1984
2018-01-16 10:14:48 GMT 45.56946 5.39938 7,100 336 276 -1984
2018-01-16 10:14:41 GMT 45.56085 5.40501 7,325 336 275 -1856
2018-01-16 10:14:38 GMT 45.55797 5.40692 7,400 335 276 -1664
2018-01-16 10:14:31 GMT 45.54886 5.41298 7,600 335 277 -1344
2018-01-16 10:14:27 GMT 45.54497 5.41561 7,675 335 278 -1280
2018-01-16 10:14:20 GMT 45.53673 5.42110 7,825 336 280 -1152
2018-01-16 10:14:17 GMT 45.53375 5.42300 7,850 336 282 -832
2018-01-16 10:14:10 GMT 45.52341 5.42980 8,000 336 286 -1472
2018-01-16 10:14:07 GMT 45.52166 5.43093 8,025 336 286 -1728
2018-01-16 10:13:57 GMT 45.50908 5.43941 8,275 335 288 -1216
2018-01-16 10:13:53 GMT 45.50464 5.44235 8,350 335 287 -2112
2018-01-16 10:13:47 GMT 45.49676 5.44768 8,475 335 291 -1600
2018-01-16 10:13:42 GMT 45.49057 5.45190 8,625 335 292 -1728
2018-01-16 10:13:36 GMT 45.48335 5.45686 8,775 335 292 -1792
2018-01-16 10:13:36 GMT 45.48391 5.45652 8,775 335 292 -1792
2018-01-16 10:13:26 GMT 45.47102 5.46530 9,125 335 290 -2048
2018-01-16 10:13:15 GMT 45.45770 5.47441 9,475 335 288 -2176
2018-01-16 10:13:05 GMT 45.44625 5.48224 9,825 335 287 -1088
2018-01-16 10:12:55 GMT 45.43304 5.49127 10,000 335 287 -320
2018-01-16 10:12:54 GMT 45.43364 5.49087 9,975 335 287 -320
2018-01-16 10:12:43 GMT 45.41945 5.50068 10,000 335 288 0
2018-01-16 10:12:34 GMT 45.40755 5.50886 10,000 334 287 64
2018-01-16 10:12:23 GMT 45.39518 5.51748 10,000 334 289 -192
2018-01-16 10:12:12 GMT 45.38247 5.52619 10,000 335 290 0
2018-01-16 10:12:05 GMT 45.37450 5.53155 10,000 335 291 0
2018-01-16 10:12:02 GMT 45.36907 5.53530 10,000 335 291 320
2018-01-16 10:11:54 GMT 45.36129 5.54059 10,000 335 292 -192
2018-01-16 10:11:52 GMT 45.35825 5.54267 10,000 335 293 -64
2018-01-16 10:11:49 GMT 45.35380 5.54568 10,000 335 292 128
2018-01-16 10:11:42 GMT 45.34557 5.55117 10,000 335 292 256
2018-01-16 10:11:39 GMT 45.34267 5.55312 10,000 335 292 -256
2018-01-16 10:11:32 GMT 45.33325 5.55954 9,975 335 294 -128
2018-01-16 10:11:29 GMT 45.32973 5.56190 9,975 335 297 192
2018-01-16 10:11:21 GMT 45.32034 5.56837 10,000 335 297 256
2018-01-16 10:11:18 GMT 45.31656 5.57101 9,975 335 296 -256
2018-01-16 10:11:14 GMT 45.31151 5.57445 9,975 335 292 -384
2018-01-16 10:11:10 GMT 45.30643 5.57785 9,975 336 292 -576
2018-01-16 10:11:08 GMT 45.30359 5.57975 10,000 336 291 -64
2018-01-16 10:11:00 GMT 45.29430 5.58576 10,000 336 284 0
2018-01-16 10:10:58 GMT 45.29077 5.58809 10,000 336 281 -64
2018-01-16 10:10:49 GMT 45.28187 5.59385 10,000 336 277 -256
2018-01-16 10:10:47 GMT 45.27843 5.59613 10,025 336 275 -256
2018-01-16 10:10:39 GMT 45.26949 5.60189 10,075 336 274 -1152
2018-01-16 10:10:37 GMT 45.26609 5.60403 10,100 336 274 -1216
2018-01-16 10:10:32 GMT 45.26115 5.60728 10,200 336 275 -1408
2018-01-16 10:10:29 GMT 45.25813 5.60924 10,250 336 274 -2560
2018-01-16 10:10:25 GMT 45.25378 5.61205 10,375 335 273 -1728
2018-01-16 10:10:21 GMT 45.24921 5.61512 10,500 336 274 -1280
2018-01-16 10:10:17 GMT 45.24356 5.61877 10,600 336 276 -960
2018-01-16 10:10:14 GMT 45.24078 5.62062 10,650 336 277 -896
2018-01-16 10:10:10 GMT 45.23662 5.62333 10,725 336 278 -1664
2018-01-16 10:10:07 GMT 45.23248 5.62601 10,800 336 280 -1088
2018-01-16 10:10:05 GMT 45.22955 5.62788 10,850 337 282 -1408
2018-01-16 10:10:01 GMT 45.22540 5.63049 10,925 338 284 -1664
2018-01-16 10:09:57 GMT 45.22042 5.63337 11,050 340 286 -1984
2018-01-16 10:09:55 GMT 45.21796 5.63465 11,125 342 287 -2304
2018-01-16 10:09:53 GMT 45.21484 5.63612 11,225 344 287 -2688
2018-01-16 10:09:50 GMT 45.21112 5.63769 11,350 345 288 -2752
2018-01-16 10:09:46 GMT 45.20665 5.63934 11,500 348 288 -2176
2018-01-16 10:09:43 GMT 45.20204 5.64081 11,625 348 288 -1664
2018-01-16 10:09:41 GMT 45.19794 5.64207 11,700 349 289 -1728
2018-01-16 10:09:37 GMT 45.19329 5.64349 11,800 349 290 -1728
2018-01-16 10:09:31 GMT 45.18530 5.64586 12,000 349 290 -1792
2018-01-16 10:09:29 GMT 45.18407 5.64619 12,025 349 290 -1792
2018-01-16 10:09:26 GMT 45.17997 5.64744 12,100 349 293 -1216
2018-01-16 10:09:21 GMT 45.17395 5.64920 12,175 349 296 -832
2018-01-16 10:09:19 GMT 45.17070 5.65011 12,225 349 297 -1216
2018-01-16 10:09:16 GMT 45.16596 5.65146 12,275 350 299 -1280
2018-01-16 10:09:10 GMT 45.15752 5.65371 12,425 350 304 -960
2018-01-16 10:09:05 GMT 45.15195 5.65521 12,475 350 306 -1152
2018-01-16 10:09:01 GMT 45.14501 5.65709 12,550 349 309 -512
2018-01-16 10:08:59 GMT 45.14296 5.65763 12,575 349 309 -832
2018-01-16 10:08:55 GMT 45.13728 5.65920 12,650 350 312 -768
2018-01-16 10:08:51 GMT 45.13197 5.66064 12,725 350 314 -2240
2018-01-16 10:08:49 GMT 45.12859 5.66156 12,800 350 314 -2240
2018-01-16 10:08:45 GMT 45.12308 5.66298 12,925 350 314 -1216
2018-01-16 10:08:40 GMT 45.11435 5.66528 13,050 350 314 -832
2018-01-16 10:08:36 GMT 45.10886 5.66679 13,100 350 315 -768
2018-01-16 10:08:34 GMT 45.10817 5.66698 13,100 350 315 -832
2018-01-16 10:08:28 GMT 45.09897 5.66953 13,225 349 318 -1728
2018-01-16 10:08:24 GMT 45.09371 5.67116 13,350 348 320 -2240
2018-01-16 10:08:20 GMT 45.08752 5.67307 13,500 348 320 -2496
2018-01-16 10:08:16 GMT 45.08217 5.67471 13,650 348 320 -2496
2018-01-16 10:08:13 GMT 45.07788 5.67611 13,800 348 319 -2944
2018-01-16 10:08:10 GMT 45.07315 5.67764 13,950 347 319 -3072
2018-01-16 10:08:08 GMT 45.06946 5.67886 14,075 347 317 -3072
2018-01-16 10:08:04 GMT 45.06448 5.68060 14,250 346 317 -3072
2018-01-16 10:08:02 GMT 45.06157 5.68163 14,350 345 316 -2944
2018-01-16 10:08:00 GMT 45.05884 5.68268 14,425 344 315 -2880
2018-01-16 10:07:57 GMT 45.05451 5.68449 14,575 343 315 -2624
2018-01-16 10:07:54 GMT 45.04990 5.68670 14,700 340 314 -2176
2018-01-16 10:07:50 GMT 45.04427 5.68968 14,850 337 314 -2048
2018-01-16 10:07:46 GMT 45.03946 5.69255 14,975 335 313 -2112
2018-01-16 10:07:43 GMT 45.03552 5.69517 15,075 334 313 -2112
2018-01-16 10:07:40 GMT 45.03119 5.69815 15,175 334 315 -1856
2018-01-16 10:07:36 GMT 45.02467 5.70269 15,325 334 318 -1344
2018-01-16 10:07:33 GMT 45.02253 5.70418 15,350 334 318 -1344
2018-01-16 10:07:30 GMT 45.01848 5.70693 15,425 334 320 -1088
2018-01-16 10:07:27 GMT 45.01392 5.71008 15,475 334 322 -896
2018-01-16 10:07:23 GMT 45.00833 5.71394 15,525 334 326 -768
2018-01-16 10:07:20 GMT 45.00559 5.71584 15,550 335 326 -768
2018-01-16 10:07:17 GMT 44.99931 5.72015 15,625 334 330 -640
2018-01-16 10:07:15 GMT 44.99786 5.72120 15,625 335 331 -640
2018-01-16 10:07:13 GMT 44.99451 5.72347 15,650 335 333 -576
2018-01-16 10:07:05 GMT 44.98407 5.73061 15,750 335 339 -640
2018-01-16 10:07:03 GMT 44.97980 5.73352 15,775 335 342 -640
2018-01-16 10:07:01 GMT 44.97816 5.73467 15,800 335 345 -704
2018-01-16 10:06:57 GMT 44.97240 5.73859 15,850 335 346 -704
2018-01-16 10:06:53 GMT 44.96648 5.74263 15,900 335 348 -1024
2018-01-16 10:06:51 GMT 44.96308 5.74498 15,950 335 351 -1408
2018-01-16 10:06:49 GMT 44.96091 5.74644 15,975 335 351 -1408
2018-01-16 10:06:44 GMT 44.95335 5.75160 16,100 335 356 -1536
2018-01-16 10:06:42 GMT 44.95033 5.75370 16,175 335 356 -1536
2018-01-16 10:06:39 GMT 44.94609 5.75657 16,250 335 357 -1600
2018-01-16 10:06:33 GMT 44.93785 5.76226 16,400 335 361 -2112
2018-01-16 10:06:31 GMT 44.93481 5.76436 16,475 335 361 -2304
2018-01-16 10:06:28 GMT 44.92966 5.76789 16,625 335 362 -2688
2018-01-16 10:06:25 GMT 44.92468 5.77124 16,750 335 363 -2880
2018-01-16 10:06:22 GMT 44.91928 5.77499 16,950 334 364 -3136
2018-01-16 10:06:18 GMT 44.91481 5.77809 17,100 334 363 -3392
2018-01-16 10:06:15 GMT 44.90849 5.78247 17,325 334 363 -3456
2018-01-16 10:06:12 GMT 44.90606 5.78410 17,425 334 363 -3392
2018-01-16 10:06:10 GMT 44.90280 5.78638 17,550 334 363 -3392
2018-01-16 10:06:08 GMT 44.90038 5.78805 17,625 334 364 -3072
2018-01-16 10:06:06 GMT 44.89650 5.79071 17,775 335 364 -3392
2018-01-16 10:06:04 GMT 44.89343 5.79287 17,875 335 364 -3392
2018-01-16 10:06:01 GMT 44.88758 5.79683 18,100 334 364 -3904
2018-01-16 10:05:58 GMT 44.88460 5.79891 18,200 335 364 -4032
2018-01-16 10:05:54 GMT 44.87727 5.80392 18,525 335 365 -3648
2018-01-16 10:05:51 GMT 44.87334 5.80660 18,675 335 366 -3200
2018-01-16 10:05:49 GMT 44.86956 5.80915 18,800 335 366 -3072
2018-01-16 10:05:43 GMT 44.86109 5.81498 19,075 335 368 -2816
2018-01-16 10:05:40 GMT 44.85564 5.81867 19,250 335 370 -2624
2018-01-16 10:05:38 GMT 44.85411 5.81975 19,300 335 370 -2624
2018-01-16 10:05:33 GMT 44.84582 5.82543 19,525 335 371 -2176
2018-01-16 10:05:30 GMT 44.84116 5.82858 19,625 335 372 -2048
2018-01-16 10:05:28 GMT 44.83818 5.83066 19,700 335 372 -1856
2018-01-16 10:05:22 GMT 44.82930 5.83668 19,850 335 374 -1088
2018-01-16 10:05:20 GMT 44.82527 5.83943 19,900 335 375 -640
2018-01-16 10:05:18 GMT 44.82252 5.84133 19,900 335 375 -448
2018-01-16 10:05:16 GMT 44.82050 5.84272 19,925 335 375 -64
2018-01-16 10:05:13 GMT 44.81361 5.84741 19,950 335 376 -448
2018-01-16 10:05:10 GMT 44.80942 5.85022 19,975 335 376 -448
2018-01-16 10:05:08 GMT 44.80641 5.85225 20,000 335 376 -64
2018-01-16 10:05:02 GMT 44.79792 5.85806 20,000 335 375 0
2018-01-16 10:05:00 GMT 44.79332 5.86114 20,000 335 375 0
2018-01-16 10:04:56 GMT 44.78764 5.86506 20,000 335 378 0
2018-01-16 10:04:51 GMT 44.78130 5.86938 20,000 335 375 -64
2018-01-16 10:04:49 GMT 44.77725 5.87219 20,000 334 376 -64
2018-01-16 10:04:47 GMT 44.77473 5.87383 20,000 335 377 -64
2018-01-16 10:04:44 GMT 44.76933 5.87756 20,000 335 377 0
2018-01-16 10:04:41 GMT 44.76553 5.88017 20,000 335 377 0
2018-01-16 10:04:38 GMT 44.75844 5.88505 20,000 334 378 -64
2018-01-16 10:04:34 GMT 44.75355 5.88834 20,000 335 377 0
2018-01-16 10:04:31 GMT 44.74908 5.89142 20,000 335 378 0
2018-01-16 10:04:26 GMT 44.74123 5.89678 20,000 335 379 0
2018-01-16 10:04:21 GMT 44.73317 5.90221 20,000 335 380 0
2018-01-16 10:04:16 GMT 44.72498 5.90777 20,000 335 381 0
2018-01-16 10:04:10 GMT 44.71612 5.91379 20,000 335 381 0
2018-01-16 10:04:05 GMT 44.70779 5.91942 20,000 335 381 0
2018-01-16 10:04:01 GMT 44.70011 5.92471 20,000 335 381 -64
2018-01-16 10:03:54 GMT 44.69115 5.93079 20,000 335 380 0
2018-01-16 10:03:52 GMT 44.68768 5.93315 20,000 335 380 0
2018-01-16 10:03:43 GMT 44.67265 5.94340 20,000 335 381 0
2018-01-16 10:03:41 GMT 44.67018 5.94508 20,000 335 380 0
2018-01-16 10:03:33 GMT 44.65686 5.95412 20,000 335 380 0
2018-01-16 10:03:30 GMT 44.65202 5.95740 20,000 335 381 0
2018-01-16 10:03:25 GMT 44.64257 5.96383 20,000 335 381 0
2018-01-16 10:03:22 GMT 44.64024 5.96537 20,000 335 381 0
2018-01-16 10:03:13 GMT 44.62592 5.97512 20,000 335 381 0
2018-01-16 10:03:11 GMT 44.62312 5.97702 20,000 335 381 0
2018-01-16 10:03:04 GMT 44.60902 5.98657 20,000 335 381 -64
2018-01-16 10:03:00 GMT 44.60573 5.98879 20,000 335 381 0
2018-01-16 10:02:51 GMT 44.59094 5.99880 20,000 335 381 -64
2018-01-16 10:02:48 GMT 44.58592 6.00215 20,000 335 381 0
2018-01-16 10:02:42 GMT 44.57368 6.01044 20,000 335 381 -64
2018-01-16 10:02:40 GMT 44.57368 6.01044 20,000 335 381 -64
2018-01-16 10:02:38 GMT 44.57042 6.01260 20,000 335 381 -64
2018-01-16 10:02:35 GMT 44.56435 6.01678 20,000 335 382 -64
2018-01-16 10:02:31 GMT 44.55798 6.02110 20,000 335 386 0
2018-01-16 10:02:28 GMT 44.55463 6.02339 20,000 335 383 -64
2018-01-16 10:02:26 GMT 44.54886 6.02727 20,000 335 383 -64
2018-01-16 10:02:21 GMT 44.54192 6.03195 20,000 335 383 -64
2018-01-16 10:02:19 GMT 44.53963 6.03352 20,000 335 383 -64
2018-01-16 10:02:19 GMT 44.54044 6.03297 20,000 335 383 0
2018-01-16 10:02:09 GMT 44.52374 6.04431 20,000 335 385 0
2018-01-16 10:02:01 GMT 44.50925 6.05414 20,000 335 385 0
2018-01-16 10:01:59 GMT 44.50676 6.05576 20,000 335 386 0
2018-01-16 10:01:50 GMT 44.49229 6.06550 20,000 335 386 64
2018-01-16 10:01:48 GMT 44.49000 6.06707 20,000 335 386 0
2018-01-16 10:01:40 GMT 44.47568 6.07675 20,000 335 386 -64
2018-01-16 10:01:37 GMT 44.47172 6.07939 20,000 335 386 0
2018-01-16 10:01:27 GMT 44.45576 6.09018 20,000 335 385 -64
2018-01-16 10:01:13 GMT 44.43397 6.10487 20,000 335 385 0
2018-01-16 10:01:05 GMT 44.42089 6.11362 20,000 335 387 -64
2018-01-16 10:00:58 GMT 44.40793 6.12233 20,000 335 388 0
2018-01-16 10:00:55 GMT 44.40463 6.12455 20,000 335 388 0
2018-01-16 10:00:47 GMT 44.39085 6.13377 20,000 335 389 64
2018-01-16 10:00:44 GMT 44.38696 6.13632 20,000 335 389 64
2018-01-16 10:00:36 GMT 44.37359 6.14531 20,000 335 390 64
2018-01-16 10:00:34 GMT 44.37048 6.14737 20,000 335 390 64
2018-01-16 10:00:27 GMT 44.35735 6.15623 19,975 335 390 64
2018-01-16 10:00:24 GMT 44.35318 6.15901 19,975 335 390 64
2018-01-16 10:00:16 GMT 44.33994 6.16789 19,975 335 390 -128
2018-01-16 10:00:13 GMT 44.33621 6.17043 19,975 335 390 -128
2018-01-16 10:00:03 GMT 44.31741 6.18302 20,050 335 389 -1152
2018-01-16 09:59:52 GMT 44.30132 6.19380 20,300 335 387 -1792
2018-01-16 09:59:48 GMT 44.29463 6.19825 20,425 335 386 -2048
2018-01-16 09:59:42 GMT 44.28511 6.20453 20,625 335 388 -2944
2018-01-16 09:59:40 GMT 44.28277 6.20607 20,700 335 390 -3136
2018-01-16 09:59:31 GMT 44.26745 6.21632 21,250 335 390 -4416
2018-01-16 09:59:29 GMT 44.26513 6.21786 21,350 335 390 -4544
2018-01-16 09:59:21 GMT 44.25056 6.22764 22,025 335 388 -4800
2018-01-16 09:59:19 GMT 44.24895 6.22872 22,125 335 388 -4480
2018-01-16 09:59:15 GMT 44.24148 6.23367 22,475 335 387 -4736
2018-01-16 09:59:13 GMT 44.23737 6.23644 22,675 335 384 -5504
2018-01-16 09:59:07 GMT 44.22728 6.24318 23,225 335 381 -4736
2018-01-16 09:59:02 GMT 44.22102 6.24736 23,525 335 381 -4352
2018-01-16 09:58:58 GMT 44.21434 6.25181 23,825 335 381 -4032
2018-01-16 09:58:52 GMT 44.20573 6.25756 24,200 335 380 -4096
2018-01-16 09:58:47 GMT 44.19750 6.26306 24,550 335 380 -3968
2018-01-16 09:58:45 GMT 44.19423 6.26522 24,675 335 380 -3584
2018-01-16 09:58:37 GMT 44.18147 6.27370 25,125 335 382 -3200
2018-01-16 09:58:34 GMT 44.17700 6.27672 25,275 335 382 -3264
2018-01-16 09:58:30 GMT 44.16943 6.28175 25,525 335 384 -3008
2018-01-16 09:58:27 GMT 44.16527 6.28450 25,650 335 386 -2752
2018-01-16 09:58:24 GMT 44.16046 6.28769 25,775 335 388 -2560
2018-01-16 09:58:21 GMT 44.15540 6.29105 25,900 335 390 -2560
2018-01-16 09:58:16 GMT 44.14742 6.29638 26,125 335 393 -3072
2018-01-16 09:58:14 GMT 44.14430 6.29849 26,225 335 394 -3392
2018-01-16 09:58:11 GMT 44.13906 6.30197 26,400 335 395 -3776
2018-01-16 09:58:07 GMT 44.13167 6.30685 26,675 335 395 -4096
2018-01-16 09:58:05 GMT 44.12933 6.30844 26,750 335 395 -4224
2018-01-16 09:58:03 GMT 44.12618 6.31050 26,900 335 395 -4352
2018-01-16 09:58:00 GMT 44.12114 6.31388 27,100 335 395 -4224
2018-01-16 09:57:56 GMT 44.11432 6.31842 27,375 335 396 -3328
2018-01-16 09:57:54 GMT 44.10974 6.32142 27,525 335 397 -3008
2018-01-16 09:57:47 GMT 44.09982 6.32806 27,800 335 398 -2432
2018-01-16 09:57:45 GMT 44.09569 6.33081 27,900 335 402 -1600
2018-01-16 09:57:43 GMT 44.09303 6.33260 27,950 335 403 -1600
2018-01-16 09:57:40 GMT 44.08692 6.33663 28,050 335 406 -1792
2018-01-16 09:57:34 GMT 44.07784 6.34269 28,200 335 407 -1920
2018-01-16 09:57:31 GMT 44.07189 6.34670 28,325 335 409 -1856
2018-01-16 09:57:28 GMT 44.06721 6.34978 28,400 335 409 -1600
2018-01-16 09:57:24 GMT 44.06012 6.35444 28,500 335 411 -1216
2018-01-16 09:57:21 GMT 44.05582 6.35731 28,575 335 410 -1152
2018-01-16 09:57:17 GMT 44.04826 6.36230 28,650 335 410 -1088
2018-01-16 09:57:13 GMT 44.04213 6.36639 28,725 335 408 -1152
2018-01-16 09:57:11 GMT 44.03805 6.36907 28,750 335 408 -1152
2018-01-16 09:57:08 GMT 44.03366 6.37201 28,800 335 407 -1088
2018-01-16 09:57:03 GMT 44.02432 6.37820 28,900 335 406 -1088
2018-01-16 09:57:01 GMT 44.02077 6.38057 28,925 335 406 -1088
2018-01-16 09:56:57 GMT 44.01333 6.38548 29,000 335 406 -1088
2018-01-16 09:56:53 GMT 44.00676 6.38986 29,075 335 406 -1024
2018-01-16 09:56:51 GMT 44.00313 6.39225 29,100 335 406 -1088
2018-01-16 09:56:45 GMT 43.99443 6.39800 29,200 335 406 -1024
2018-01-16 09:56:41 GMT 43.98507 6.40457 29,275 333 405 -1024
2018-01-16 09:56:38 GMT 43.98176 6.40693 29,325 331 405 -1024
2018-01-16 09:56:36 GMT 43.97827 6.40948 29,350 332 406 -1088
2018-01-16 09:56:31 GMT 43.97087 6.41510 29,425 331 404 -1024
2018-01-16 09:56:28 GMT 43.96545 6.41940 29,475 330 404 -1024
2018-01-16 09:56:23 GMT 43.95728 6.42609 29,575 330 404 -1024
2018-01-16 09:56:21 GMT 43.95411 6.42877 29,600 329 403 -1024
2018-01-16 09:56:18 GMT 43.94922 6.43295 29,650 329 403 -1024
2018-01-16 09:56:16 GMT 43.94687 6.43492 29,675 329 403 -1024
2018-01-16 09:56:09 GMT 43.93405 6.44577 29,800 329 401 -1024
2018-01-16 09:56:07 GMT 43.93167 6.44780 29,825 329 401 -1088
2018-01-16 09:55:59 GMT 43.91876 6.45868 29,975 329 401 -1024
2018-01-16 09:55:57 GMT 43.91579 6.46124 30,000 329 400 -960
2018-01-16 09:55:52 GMT 43.90888 6.46731 30,075 328 399 -1024
2018-01-16 09:55:49 GMT 43.90338 6.47235 30,125 326 398 -960
2018-01-16 09:55:47 GMT 43.90031 6.47523 30,150 326 398 -960
2018-01-16 09:55:45 GMT 43.89825 6.47722 30,175 325 398 -960
2018-01-16 09:55:39 GMT 43.88712 6.48834 30,275 323 398 -1024
2018-01-16 09:55:36 GMT 43.88498 6.49057 30,300 323 398 -1024
2018-01-16 09:55:27 GMT 43.87198 6.50486 30,450 321 400 -1088
2018-01-16 09:55:25 GMT 43.86905 6.50819 30,475 321 400 -1088
2018-01-16 09:55:23 GMT 43.86617 6.51144 30,525 321 400 -1088
2018-01-16 09:55:18 GMT 43.85710 6.52186 30,625 321 401 -1024
2018-01-16 09:55:14 GMT 43.85211 6.52760 30,675 321 402 -1024
2018-01-16 09:55:09 GMT 43.84336 6.53758 30,775 321 402 -1088
2018-01-16 09:55:07 GMT 43.84271 6.53830 30,800 321 402 -1024
2018-01-16 09:55:05 GMT 43.83978 6.54170 30,825 321 402 -1024
2018-01-16 09:55:01 GMT 43.83421 6.54804 30,875 321 403 -1088
2018-01-16 09:54:59 GMT 43.83126 6.55145 30,925 321 402 -1024
2018-01-16 09:54:57 GMT 43.82688 6.55642 30,975 321 403 -1088
2018-01-16 09:54:55 GMT 43.82547 6.55807 30,975 321 403 -1088
2018-01-16 09:54:52 GMT 43.82111 6.56309 31,050 321 404 -1088
2018-01-16 09:54:48 GMT 43.81417 6.57100 31,125 321 404 -1088
2018-01-16 09:54:45 GMT 43.81055 6.57513 31,150 321 404 -1088
2018-01-16 09:54:42 GMT 43.80679 6.57941 31,200 321 404 -1152
2018-01-16 09:54:34 GMT 43.79504 6.59278 31,350 321 403 -1088
2018-01-16 09:54:31 GMT 43.79141 6.59697 31,400 321 403 -1088
2018-01-16 09:54:24 GMT 43.78043 6.60949 31,525 321 400 -960
2018-01-16 09:54:20 GMT 43.77498 6.61575 31,575 321 399 -960
2018-01-16 09:54:13 GMT 43.76492 6.62731 31,700 321 399 -960
2018-01-16 09:54:10 GMT 43.76120 6.63156 31,725 321 399 -1024
2018-01-16 09:54:03 GMT 43.75108 6.64315 31,825 321 399 -1024
2018-01-16 09:54:00 GMT 43.74701 6.64775 31,875 321 400 -1024
2018-01-16 09:53:52 GMT 43.73524 6.66116 32,000 321 402 -1088
2018-01-16 09:53:50 GMT 43.73187 6.66504 32,050 321 404 -1088
2018-01-16 09:53:42 GMT 43.72098 6.67740 32,175 321 405 -1024
2018-01-16 09:53:39 GMT 43.71669 6.68230 32,225 321 406 -1024
2018-01-16 09:53:34 GMT 43.70705 6.69329 32,325 321 407 -960
2018-01-16 09:53:31 GMT 43.70478 6.69584 32,350 321 407 -960
2018-01-16 09:53:29 GMT 43.70124 6.69989 32,400 321 407 -960
2018-01-16 09:53:21 GMT 43.68960 6.71310 32,500 321 407 -896
2018-01-16 09:53:18 GMT 43.68576 6.71744 32,550 321 408 -896
2018-01-16 09:53:12 GMT 43.67679 6.72766 32,650 321 407 -896
2018-01-16 09:53:10 GMT 43.67349 6.73142 32,675 321 407 -896
2018-01-16 09:53:06 GMT 43.66777 6.73788 32,750 321 407 -896
2018-01-16 09:53:03 GMT 43.66223 6.74417 32,825 321 406 -896
2018-01-16 09:53:00 GMT 43.65906 6.74776 32,850 321 404 -960
2018-01-16 09:52:57 GMT 43.65548 6.75182 32,900 321 404 -960
2018-01-16 09:52:52 GMT 43.64752 6.76084 32,975 321 402 -896
2018-01-16 09:52:50 GMT 43.64458 6.76411 33,025 321 402 -896
2018-01-16 09:52:48 GMT 43.64170 6.76738 33,050 321 400 -896
2018-01-16 09:52:44 GMT 43.63660 6.77313 33,125 321 399 -832
2018-01-16 09:52:41 GMT 43.63252 6.77780 33,150 321 397 -832
2018-01-16 09:52:38 GMT 43.62767 6.78323 33,200 321 395 -896
2018-01-16 09:52:36 GMT 43.62488 6.78636 33,225 321 393 -960
2018-01-16 09:52:32 GMT 43.61829 6.79377 33,300 321 393 -1088
2018-01-16 09:52:28 GMT 43.61407 6.79856 33,350 321 392 -1024
2018-01-16 09:52:24 GMT 43.60846 6.80485 33,425 321 390 -1024
2018-01-16 09:52:21 GMT 43.60336 6.81057 33,500 321 389 -1024
2018-01-16 09:52:18 GMT 43.59988 6.81453 33,550 321 388 -1024
2018-01-16 09:52:15 GMT 43.59543 6.81950 33,600 321 387 -1024
2018-01-16 09:52:12 GMT 43.59021 6.82539 33,650 321 385 -1024
2018-01-16 09:52:10 GMT 43.58681 6.82918 33,700 321 385 -1088
2018-01-16 09:52:08 GMT 43.58528 6.83095 33,725 321 385 -1088
2018-01-16 09:52:04 GMT 43.58043 6.83637 33,775 321 385 -1024
2018-01-16 09:51:57 GMT 43.57118 6.84672 33,875 321 385 -960
2018-01-16 09:51:54 GMT 43.56619 6.85226 33,925 321 385 -896
2018-01-16 09:51:52 GMT 43.56223 6.85671 33,950 321 385 -640
2018-01-16 09:51:48 GMT 43.55818 6.86122 34,000 321 386 0
2018-01-16 09:51:46 GMT 43.55598 6.86371 34,000 321 386 -64
2018-01-16 09:51:43 GMT 43.55173 6.86856 34,000 321 387 0
2018-01-16 09:51:40 GMT 43.54573 6.87533 34,000 321 388 64
2018-01-16 09:51:36 GMT 43.54166 6.87987 34,000 321 388 128
2018-01-16 09:51:33 GMT 43.53593 6.88640 34,000 321 387 64
2018-01-16 09:51:28 GMT 43.53062 6.89239 33,975 321 387 384
2018-01-16 09:51:26 GMT 43.52723 6.89621 33,975 321 387 64
2018-01-16 09:51:21 GMT 43.52087 6.90337 33,950 321 383 0
2018-01-16 09:51:19 GMT 43.51593 6.90900 33,950 321 385 64
2018-01-16 09:51:17 GMT 43.51377 6.91138 33,950 321 385 64
2018-01-16 09:51:15 GMT 43.51309 6.91219 33,950 321 385 64
2018-01-16 09:51:11 GMT 43.50719 6.91883 33,950 321 383 0
2018-01-16 09:51:08 GMT 43.50220 6.92445 33,950 321 382 64
2018-01-16 09:51:05 GMT 43.49869 6.92838 33,950 321 382 64
2018-01-16 09:51:01 GMT 43.49283 6.93499 33,950 321 381 64
2018-01-16 09:50:58 GMT 43.48808 6.94035 33,950 321 381 64
2018-01-16 09:50:56 GMT 43.48540 6.94336 33,950 321 380 0
2018-01-16 09:50:54 GMT 43.48416 6.94477 33,950 321 380 0
2018-01-16 09:50:51 GMT 43.47913 6.95039 33,950 321 380 0
2018-01-16 09:50:49 GMT 43.47729 6.95249 33,950 321 380 0
2018-01-16 09:50:45 GMT 43.47121 6.95939 33,950 321 379 0
2018-01-16 09:50:43 GMT 43.46834 6.96258 33,950 321 379 0
2018-01-16 09:50:40 GMT 43.46498 6.96642 33,950 321 379 0
2018-01-16 09:50:37 GMT 43.45944 6.97261 33,950 321 379 0
2018-01-16 09:50:35 GMT 43.45752 6.97478 33,950 321 379 0
2018-01-16 09:50:33 GMT 43.45551 6.97708 33,950 321 379 -64
2018-01-16 09:50:30 GMT 43.45079 6.98234 33,950 321 379 -64
2018-01-16 09:50:25 GMT 43.44464 6.98920 33,975 321 379 -128
2018-01-16 09:50:23 GMT 43.44120 6.99306 33,975 321 379 -128
2018-01-16 09:50:16 GMT 43.43170 7.00372 33,975 321 379 -128
2018-01-16 09:50:14 GMT 43.42882 7.00698 34,000 321 380 -128
2018-01-16 09:50:12 GMT 43.42677 7.00928 34,000 321 380 -192
2018-01-16 09:50:09 GMT 43.42191 7.01477 34,000 321 380 -192
2018-01-16 09:50:05 GMT 43.41586 7.02154 34,025 321 380 -192
2018-01-16 09:50:03 GMT 43.41452 7.02301 34,025 321 380 -192
2018-01-16 09:50:00 GMT 43.41057 7.02752 34,025 321 380 -192
2018-01-16 09:49:56 GMT 43.40428 7.03458 34,050 321 380 -128
2018-01-16 09:49:52 GMT 43.39883 7.04070 34,050 321 381 64
2018-01-16 09:49:50 GMT 43.39728 7.04243 34,050 321 381 64
2018-01-16 09:49:47 GMT 43.39302 7.04721 34,050 321 382 64
2018-01-16 09:49:44 GMT 43.38771 7.05322 34,050 321 382 64
2018-01-16 09:49:41 GMT 43.38368 7.05769 34,025 321 383 0
2018-01-16 09:49:36 GMT 43.37585 7.06651 34,050 321 385 0
2018-01-16 09:49:33 GMT 43.37380 7.06881 34,050 321 386 0
2018-01-16 09:49:31 GMT 43.36990 7.07322 34,050 321 386 0
2018-01-16 09:49:29 GMT 43.36784 7.07552 34,050 321 386 0
2018-01-16 09:49:27 GMT 43.36432 7.07941 34,050 321 388 64
2018-01-16 09:49:23 GMT 43.35933 7.08503 34,025 321 388 64
2018-01-16 09:49:20 GMT 43.35480 7.09014 34,025 321 388 128
2018-01-16 09:49:15 GMT 43.34784 7.09787 34,025 321 388 128
2018-01-16 09:49:13 GMT 43.34500 7.10106 34,025 321 388 64
2018-01-16 09:49:11 GMT 43.34299 7.10330 34,000 321 388 64
2018-01-16 09:49:09 GMT 43.33997 7.10668 34,000 321 388 64
2018-01-16 09:49:03 GMT 43.33200 7.11563 34,000 321 388 64
2018-01-16 09:49:01 GMT 43.32896 7.11907 34,000 321 388 64
2018-01-16 09:48:58 GMT 43.32482 7.12365 34,000 321 388 64
2018-01-16 09:48:54 GMT 43.31959 7.12955 33,975 321 387 64
2018-01-16 09:48:51 GMT 43.31448 7.13523 33,975 321 386 64
2018-01-16 09:48:48 GMT 43.31035 7.13984 33,975 321 386 64
2018-01-16 09:48:43 GMT 43.30206 7.14903 33,975 321 385 64
2018-01-16 09:48:41 GMT 43.30136 7.14981 33,975 321 385 64
2018-01-16 09:48:38 GMT 43.29679 7.15498 33,975 321 385 0
2018-01-16 09:48:36 GMT 43.29391 7.15818 33,975 321 385 0
2018-01-16 09:48:34 GMT 43.29172 7.16066 33,975 321 384 0
2018-01-16 09:48:32 GMT 43.28823 7.16453 33,975 321 385 0
2018-01-16 09:48:30 GMT 43.28548 7.16760 33,975 322 384 -64
2018-01-16 09:48:27 GMT 43.28129 7.17224 33,975 321 383 -64
2018-01-16 09:48:24 GMT 43.27739 7.17656 33,975 321 383 0
2018-01-16 09:48:21 GMT 43.27328 7.18114 33,975 321 383 -64
2018-01-16 09:48:19 GMT 43.27121 7.18346 33,975 321 383 -64
2018-01-16 09:48:17 GMT 43.26759 7.18742 33,975 321 383 0
2018-01-16 09:48:15 GMT 43.26546 7.18983 33,975 321 383 0
2018-01-16 09:48:13 GMT 43.26253 7.19310 33,975 321 383 -64
2018-01-16 09:48:11 GMT 43.25940 7.19656 34,000 321 383 0
2018-01-16 09:48:09 GMT 43.25695 7.19932 34,000 321 382 -64
2018-01-16 09:48:07 GMT 43.25373 7.20298 34,000 321 383 -64
2018-01-16 09:48:05 GMT 43.25094 7.20605 34,000 321 383 -64
2018-01-16 09:48:03 GMT 43.24805 7.20925 34,000 321 383 -64
2018-01-16 09:48:01 GMT 43.24531 7.21233 34,000 321 383 -64
2018-01-16 09:47:59 GMT 43.24242 7.21559 34,000 321 383 -128
2018-01-16 09:47:55 GMT 43.23716 7.22142 34,000 321 383 -64
2018-01-16 09:47:51 GMT 43.23106 7.22822 34,000 321 383 0
2018-01-16 09:47:47 GMT 43.22682 7.23293 34,000 321 383 0
2018-01-16 09:47:44 GMT 43.22254 7.23770 34,000 321 383 0
2018-01-16 09:47:42 GMT 43.21896 7.24169 34,000 321 384 0
2018-01-16 09:47:40 GMT 43.21678 7.24408 34,000 321 384 0
2018-01-16 09:47:37 GMT 43.21330 7.24797 34,025 321 384 0
2018-01-16 09:47:34 GMT 43.20799 7.25392 34,025 321 385 0
2018-01-16 09:47:29 GMT 43.20163 7.26094 34,025 321 385 0
2018-01-16 09:47:27 GMT 43.19952 7.26330 34,000 321 385 0
2018-01-16 09:47:23 GMT 43.19293 7.27059 34,025 321 385 0
2018-01-16 09:47:21 GMT 43.19014 7.27372 34,025 321 385 0
2018-01-16 09:47:19 GMT 43.18662 7.27761 34,025 321 385 0
2018-01-16 09:47:17 GMT 43.18502 7.27936 34,025 321 385 0
2018-01-16 09:47:15 GMT 43.18093 7.28394 34,025 321 379 0
2018-01-16 09:47:11 GMT 43.17636 7.28904 34,025 321 385 0
2018-01-16 09:47:09 GMT 43.17375 7.29192 34,025 321 385 0
2018-01-16 09:47:06 GMT 43.17022 7.29584 34,025 321 385 0
2018-01-16 09:47:02 GMT 43.16396 7.30284 34,000 321 385 0
2018-01-16 09:46:59 GMT 43.15960 7.30761 34,000 321 386 0
2018-01-16 09:46:56 GMT 43.15588 7.31173 34,000 321 386 0
2018-01-16 09:46:54 GMT 43.15295 7.31500 34,000 321 379 0
2018-01-16 09:46:50 GMT 43.14793 7.32060 34,000 321 386 0
2018-01-16 09:46:48 GMT 43.14510 7.32373 34,000 321 386 0
2018-01-16 09:46:44 GMT 43.13973 7.32958 34,000 321 379 0
2018-01-16 09:46:40 GMT 43.13429 7.33567 34,000 321 386 0
2018-01-16 09:46:38 GMT 43.13088 7.33946 34,000 321 386 0
2018-01-16 09:46:35 GMT 43.12674 7.34398 34,000 321 386 -64
2018-01-16 09:46:33 GMT 43.12334 7.34776 34,000 321 379 -64
2018-01-16 09:46:31 GMT 43.11928 7.35222 34,000 321 386 -64
2018-01-16 09:46:28 GMT 43.11639 7.35541 34,025 321 386 -64
2018-01-16 09:46:24 GMT 43.11209 7.36020 34,025 321 385 -64
2018-01-16 09:46:21 GMT 43.10797 7.36480 34,025 321 385 0
2018-01-16 09:46:17 GMT 43.10042 7.37317 34,025 321 385 0
2018-01-16 09:46:14 GMT 43.09708 7.37686 34,025 321 385 0
2018-01-16 09:46:09 GMT 43.09071 7.38390 34,025 321 386 -64
2018-01-16 09:46:07 GMT 43.08783 7.38716 34,025 321 386 -64
2018-01-16 09:46:04 GMT 43.08348 7.39188 34,025 321 386 -128
2018-01-16 09:45:58 GMT 43.07386 7.40256 34,025 321 386 0
2018-01-16 09:45:56 GMT 43.07314 7.40338 34,025 321 386 0
2018-01-16 09:45:53 GMT 43.06888 7.40811 34,025 321 386 64
2018-01-16 09:45:47 GMT 43.05859 7.41943 34,025 321 387 0
2018-01-16 09:45:42 GMT 43.05359 7.42497 34,025 321 387 0
2018-01-16 09:45:39 GMT 43.04874 7.43034 34,025 322 388 0
2018-01-16 09:45:36 GMT 43.04443 7.43506 34,025 322 388 64
2018-01-16 09:45:33 GMT 43.04010 7.43984 34,025 322 388 64
2018-01-16 09:45:30 GMT 43.03436 7.44611 34,025 322 388 64
2018-01-16 09:45:25 GMT 43.02969 7.45129 34,025 322 388 0
2018-01-16 09:45:22 GMT 43.02484 7.45659 34,025 322 388 64
2018-01-16 09:45:16 GMT 43.01500 7.46745 34,000 322 388 64
2018-01-16 09:45:14 GMT 43.01371 7.46887 34,000 322 388 0
2018-01-16 09:45:12 GMT 43.01093 7.47192 34,000 322 388 0
2018-01-16 09:45:05 GMT 43.00104 7.48284 34,000 321 387 64
2018-01-16 09:45:01 GMT 42.99646 7.48782 34,000 321 387 64
2018-01-16 09:44:55 GMT 42.98596 7.49948 34,000 321 387 0
2018-01-16 09:44:51 GMT 42.98158 7.50436 34,000 321 386 64
2018-01-16 09:44:46 GMT 42.97421 7.51248 34,000 321 386 0
2018-01-16 09:44:43 GMT 42.97055 7.51654 34,000 321 386 0
2018-01-16 09:44:40 GMT 42.96712 7.52033 34,000 321 386 0
2018-01-16 09:44:34 GMT 42.95700 7.53145 34,000 321 386 0
2018-01-16 09:44:30 GMT 42.95282 7.53610 34,000 322 385 -64
2018-01-16 09:44:27 GMT 42.94719 7.54225 34,000 322 385 0
2018-01-16 09:44:23 GMT 42.94300 7.54689 34,000 322 385 64
2018-01-16 09:44:19 GMT 42.93686 7.55368 34,000 322 384 64
2018-01-16 09:44:14 GMT 42.92981 7.56140 34,000 322 384 0
2018-01-16 09:44:12 GMT 42.92791 7.56343 34,000 322 384 0
2018-01-16 09:44:09 GMT 42.92372 7.56801 34,000 322 384 0
2018-01-16 09:44:04 GMT 42.91562 7.57686 34,000 322 384 0
2018-01-16 09:44:02 GMT 42.91269 7.58011 34,000 322 384 -64
2018-01-16 09:43:58 GMT 42.90836 7.58482 34,000 322 384 0
2018-01-16 09:43:52 GMT 42.89938 7.59469 34,000 322 384 0
2018-01-16 09:43:48 GMT 42.89511 7.59934 34,000 322 384 0
2018-01-16 09:43:42 GMT 42.88513 7.61026 34,000 322 383 0
2018-01-16 09:43:37 GMT 42.87996 7.61601 34,000 322 383 0
2018-01-16 09:43:32 GMT 42.87295 7.62368 34,000 322 383 64
2018-01-16 09:43:30 GMT 42.87021 7.62675 34,000 322 383 0
2018-01-16 09:43:27 GMT 42.86595 7.63141 34,000 322 383 64
2018-01-16 09:43:23 GMT 42.85881 7.63927 34,000 322 383 64
2018-01-16 09:43:21 GMT 42.85604 7.64230 34,000 322 383 64
2018-01-16 09:43:20 GMT 42.85483 7.64361 34,000 322 383 0
2018-01-16 09:43:20 GMT 42.85604 7.64230 34,000 322 383 64
2018-01-16 09:43:17 GMT 42.85208 7.64668 34,000 322 383 0
2018-01-16 09:43:12 GMT 42.84426 7.65525 34,000 322 383 64
2018-01-16 09:43:10 GMT 42.84160 7.65817 34,000 322 382 0
2018-01-16 09:43:09 GMT 42.84086 7.65897 34,000 322 382 0
2018-01-16 09:43:07 GMT 42.83766 7.66252 34,000 322 382 0
2018-01-16 09:43:01 GMT 42.82928 7.67165 34,000 322 382 0
2018-01-16 09:42:58 GMT 42.82587 7.67539 34,000 322 382 0
2018-01-16 09:42:56 GMT 42.82312 7.67840 34,000 322 382 0
2018-01-16 09:42:51 GMT 42.81596 7.68624 34,000 322 381 0
2018-01-16 09:42:48 GMT 42.81175 7.69088 34,000 322 381 64
2018-01-16 09:42:45 GMT 42.80827 7.69474 34,000 322 381 0
2018-01-16 09:42:41 GMT 42.80177 7.70185 34,000 322 381 0
2018-01-16 09:42:38 GMT 42.79811 7.70585 34,000 322 381 0
2018-01-16 09:42:35 GMT 42.79380 7.71061 34,000 322 381 0
2018-01-16 09:42:30 GMT 42.78733 7.71770 34,000 322 381 64
2018-01-16 09:42:28 GMT 42.78351 7.72186 34,000 322 381 0
2018-01-16 09:42:25 GMT 42.77962 7.72620 34,000 322 381 0
2018-01-16 09:42:21 GMT 42.77289 7.73356 34,000 322 381 0
2018-01-16 09:42:17 GMT 42.76913 7.73762 34,000 322 381 0
2018-01-16 09:42:15 GMT 42.76570 7.74137 34,000 322 380 64
2018-01-16 09:42:08 GMT 42.75609 7.75181 34,000 322 381 0
2018-01-16 09:42:06 GMT 42.75404 7.75405 34,000 322 381 0
2018-01-16 09:42:04 GMT 42.75069 7.75766 34,000 322 381 0
2018-01-16 09:41:59 GMT 42.74389 7.76504 34,000 322 381 -64
2018-01-16 09:41:56 GMT 42.73979 7.76946 34,000 322 381 0
2018-01-16 09:41:54 GMT 42.73709 7.77239 34,000 322 381 -64
2018-01-16 09:41:50 GMT 42.73067 7.77941 34,000 322 381 0
2018-01-16 09:41:45 GMT 42.72528 7.78525 34,025 322 381 0
2018-01-16 09:41:43 GMT 42.72169 7.78911 34,025 322 381 0
2018-01-16 09:41:39 GMT 42.71526 7.79608 34,025 322 382 -64
2018-01-16 09:41:36 GMT 42.71256 7.79901 34,025 322 382 0
2018-01-16 09:41:34 GMT 42.70968 7.80221 34,025 322 382 0
2018-01-16 09:41:32 GMT 42.70761 7.80441 34,025 322 382 -64
2018-01-16 09:41:27 GMT 42.69882 7.81403 34,025 322 382 0
2018-01-16 09:41:25 GMT 42.69678 7.81620 34,025 322 382 0
2018-01-16 09:41:22 GMT 42.69329 7.82003 34,025 322 382 0
2018-01-16 09:41:18 GMT 42.68774 7.82607 34,025 322 382 0
2018-01-16 09:41:13 GMT 42.68044 7.83395 34,025 322 382 0
2018-01-16 09:41:10 GMT 42.67653 7.83823 34,025 322 382 -64
2018-01-16 09:41:08 GMT 42.67383 7.84118 34,025 322 382 -64
2018-01-16 09:41:06 GMT 42.66969 7.84564 34,025 322 382 -64
2018-01-16 09:41:02 GMT 42.66522 7.85050 34,025 322 381 -64
2018-01-16 09:40:57 GMT 42.65868 7.85760 34,025 322 381 0
2018-01-16 09:40:55 GMT 42.65595 7.86053 34,025 322 381 0
2018-01-16 09:40:52 GMT 42.65237 7.86449 34,025 322 380 64
2018-01-16 09:40:47 GMT 42.64488 7.87260 34,025 322 380 64
2018-01-16 09:40:45 GMT 42.64114 7.87664 34,025 322 380 64
2018-01-16 09:40:40 GMT 42.63543 7.88282 34,025 322 380 64
2018-01-16 09:40:37 GMT 42.63135 7.88725 34,025 322 381 64
2018-01-16 09:40:30 GMT 42.62118 7.89830 34,000 322 380 0
2018-01-16 09:40:27 GMT 42.61685 7.90300 34,000 322 380 0
2018-01-16 09:40:20 GMT 42.60740 7.91233 34,000 322 380 64
2018-01-16 09:40:18 GMT 42.60539 7.91546 34,000 322 380 64
2018-01-16 09:40:16 GMT 42.60265 7.91840 34,000 322 380 64
2018-01-16 09:40:11 GMT 42.59514 7.92657 34,000 322 379 64
2018-01-16 09:40:07 GMT 42.58878 7.93344 34,000 322 379 0
2018-01-16 09:40:00 GMT 42.57990 7.94305 34,000 322 379 0
2018-01-16 09:39:56 GMT 42.57445 7.94892 34,000 322 379 0
2018-01-16 09:39:52 GMT 42.56827 7.95566 34,000 322 379 0
2018-01-16 09:39:50 GMT 42.56708 7.95697 33,975 322 378 64
2018-01-16 09:39:47 GMT 42.56299 7.96138 33,975 322 378 0
2018-01-16 09:39:45 GMT 42.56029 7.96432 33,975 322 379 64
2018-01-16 09:39:39 GMT 42.55096 7.97445 33,975 322 378 64
2018-01-16 09:39:36 GMT 42.54620 7.97957 33,975 322 378 0
2018-01-16 09:39:28 GMT 42.53590 7.99064 33,975 322 378 64
2018-01-16 09:39:25 GMT 42.53224 7.99455 33,975 322 378 0
2018-01-16 09:39:18 GMT 42.52222 8.00535 33,975 322 378 0
2018-01-16 09:39:14 GMT 42.51728 8.01069 33,975 322 378 0
2018-01-16 09:39:09 GMT 42.50969 8.01887 33,975 322 377 0
2018-01-16 09:39:07 GMT 42.50821 8.02039 33,975 322 377 0
2018-01-16 09:39:05 GMT 42.50401 8.02500 33,975 322 377 0
2018-01-16 09:38:57 GMT 42.49333 8.03644 33,975 322 377 0
2018-01-16 09:38:53 GMT 42.48893 8.04123 33,975 322 377 0
2018-01-16 09:38:48 GMT 42.48115 8.04959 33,975 322 375 0
2018-01-16 09:38:46 GMT 42.47845 8.05247 33,975 322 375 0
2018-01-16 09:38:43 GMT 42.47473 8.05649 33,975 322 375 0
2018-01-16 09:38:35 GMT 42.46376 8.06833 33,975 322 375 64
2018-01-16 09:38:33 GMT 42.46165 8.07054 33,975 322 375 0
2018-01-16 09:38:27 GMT 42.45113 8.08188 33,975 322 375 0
2018-01-16 09:38:23 GMT 42.44760 8.08569 33,975 322 375 0
2018-01-16 09:38:14 GMT 42.43552 8.09873 33,975 322 375 0
2018-01-16 09:38:12 GMT 42.43330 8.10108 33,975 322 375 0
2018-01-16 09:38:03 GMT 42.41968 8.11571 33,975 322 375 -64
2018-01-16 09:37:53 GMT 42.40668 8.12970 33,975 322 375 64
2018-01-16 09:37:51 GMT 42.40462 8.13188 33,975 322 375 64
2018-01-16 09:37:45 GMT 42.39447 8.14272 33,975 322 375 0
2018-01-16 09:37:41 GMT 42.39042 8.14713 33,975 322 375 0
2018-01-16 09:37:35 GMT 42.38223 8.15591 33,975 322 375 0
2018-01-16 09:37:32 GMT 42.37720 8.16128 33,975 322 375 -64
2018-01-16 09:37:21 GMT 42.36286 8.17670 34,000 322 375 -64
2018-01-16 09:37:10 GMT 42.34886 8.19168 34,000 322 375 64
2018-01-16 09:37:10 GMT 42.34886 8.19168 34,000 322 375 64
2018-01-16 09:37:03 GMT 42.33875 8.20212 34,000 327 376 0
2018-01-16 09:37:01 GMT 42.33456 8.20621 34,000 325 375 0
2018-01-16 09:36:58 GMT 42.33153 8.20909 34,000 326 375 0
2018-01-16 09:36:53 GMT 42.32455 8.21546 34,000 328 376 0
2018-01-16 09:36:48 GMT 42.31728 8.22171 34,000 329 376 0
2018-01-16 09:36:40 GMT 42.30441 8.23182 34,000 332 376 0
2018-01-16 09:36:37 GMT 42.30081 8.23451 34,000 333 376 0
2018-01-16 09:36:30 GMT 42.28842 8.24300 34,000 335 377 0
2018-01-16 09:36:19 GMT 42.27167 8.25373 34,000 335 377 0
2018-01-16 09:36:08 GMT 42.25514 8.26427 34,000 335 378 0
2018-01-16 09:35:58 GMT 42.23895 8.27464 34,000 335 377 -64
2018-01-16 09:35:48 GMT 42.22257 8.28506 34,000 335 377 -64
2018-01-16 09:35:40 GMT 42.20966 8.29330 34,000 335 377 0
2018-01-16 09:35:37 GMT 42.20640 8.29538 34,000 335 377 0
2018-01-16 09:35:28 GMT 42.18997 8.30585 34,000 335 378 0
2018-01-16 09:35:17 GMT 42.17409 8.31588 34,025 335 378 -64
2018-01-16 09:35:07 GMT 42.15793 8.32614 34,025 335 378 0
2018-01-16 09:34:56 GMT 42.14145 8.33656 34,025 335 378 -64
2018-01-16 09:34:46 GMT 42.12521 8.34686 34,025 335 379 0
2018-01-16 09:34:36 GMT 42.10845 8.35753 34,025 335 379 0
2018-01-16 09:34:25 GMT 42.09193 8.36807 34,025 335 379 0
2018-01-16 09:34:17 GMT 42.07978 8.37573 34,025 335 379 0
2018-01-16 09:34:15 GMT 42.07494 8.37882 34,025 335 379 0
2018-01-16 09:34:13 GMT 42.07261 8.38033 34,025 335 380 0
2018-01-16 09:34:10 GMT 42.06830 8.38307 34,025 335 380 0
2018-01-16 09:34:05 GMT 42.05919 8.38881 34,025 335 380 64
2018-01-16 09:34:01 GMT 42.05324 8.39256 34,025 335 379 64
2018-01-16 09:33:55 GMT 42.04321 8.39886 34,025 335 379 0
2018-01-16 09:33:45 GMT 42.02648 8.40939 34,000 335 380 0
2018-01-16 09:33:41 GMT 42.02161 8.41247 34,000 335 380 0
2018-01-16 09:33:34 GMT 42.01051 8.41949 34,000 335 379 -64
2018-01-16 09:33:32 GMT 42.00732 8.42146 34,000 335 379 0
2018-01-16 09:33:31 GMT 42.00576 8.42249 34,000 335 379 0
2018-01-16 09:33:23 GMT 41.99323 8.43038 34,000 335 380 -64
2018-01-16 09:33:20 GMT 41.98856 8.43332 34,000 335 380 -64
2018-01-16 09:33:12 GMT 41.97564 8.44146 34,000 335 380 0
2018-01-16 09:33:12 GMT 41.97564 8.44146 34,000 335 380 0
2018-01-16 09:33:03 GMT 41.96019 8.45123 34,000 335 381 -64
2018-01-16 09:32:52 GMT 41.94277 8.46222 34,000 335 380 0
2018-01-16 09:32:50 GMT 41.94017 8.46388 34,000 335 380 0
2018-01-16 09:32:41 GMT 41.92548 8.47308 34,000 335 381 0
2018-01-16 09:32:39 GMT 41.92220 8.47512 34,000 335 381 0
2018-01-16 09:32:32 GMT 41.90959 8.48307 34,000 335 381 -64
2018-01-16 09:32:30 GMT 41.90777 8.48419 34,000 335 382 -64
2018-01-16 09:32:24 GMT 41.89864 8.48994 34,000 335 382 0
2018-01-16 09:32:22 GMT 41.89540 8.49199 34,000 335 382 0
2018-01-16 09:32:16 GMT 41.88645 8.49761 34,000 335 382 0
2018-01-16 09:32:14 GMT 41.88328 8.49965 34,000 335 382 64
2018-01-16 09:32:12 GMT 41.87872 8.50252 34,000 335 382 64
2018-01-16 09:32:10 GMT 41.87579 8.50438 34,000 335 382 64
2018-01-16 09:32:03 GMT 41.86601 8.51053 34,000 335 382 0
2018-01-16 09:32:01 GMT 41.86011 8.51428 34,000 335 383 64
2018-01-16 09:31:51 GMT 41.84595 8.52315 34,000 335 382 0
2018-01-16 09:31:47 GMT 41.83905 8.52751 34,000 335 382 0
2018-01-16 09:31:43 GMT 41.83259 8.53159 34,000 335 379 -64
2018-01-16 09:31:41 GMT 41.82925 8.53363 34,000 335 380 0
2018-01-16 09:31:39 GMT 41.82632 8.53550 34,000 335 380 0
2018-01-16 09:31:34 GMT 41.81829 8.54053 34,000 335 379 -64
2018-01-16 09:31:29 GMT 41.81033 8.54551 34,000 335 377 -128
2018-01-16 09:31:24 GMT 41.80225 8.55055 34,000 335 377 -192
2018-01-16 09:31:22 GMT 41.79996 8.55198 34,025 335 375 -192
2018-01-16 09:31:20 GMT 41.79590 8.55452 34,025 335 375 -192
2018-01-16 09:31:17 GMT 41.79144 8.55729 34,025 335 373 -64
2018-01-16 09:31:09 GMT 41.77952 8.56474 34,025 336 374 -64
2018-01-16 09:31:07 GMT 41.77547 8.56728 34,025 335 375 0
2018-01-16 09:31:00 GMT 41.76448 8.57419 34,025 335 375 0
2018-01-16 09:30:56 GMT 41.75885 8.57770 34,025 335 376 0
2018-01-16 09:30:53 GMT 41.75409 8.58070 34,025 335 376 0
2018-01-16 09:30:50 GMT 41.74791 8.58460 34,025 335 376 0
2018-01-16 09:30:47 GMT 41.74480 8.58650 34,025 335 376 0
2018-01-16 09:30:41 GMT 41.73514 8.59256 34,025 335 377 0
2018-01-16 09:30:38 GMT 41.72957 8.59610 34,025 335 377 0
2018-01-16 09:30:35 GMT 41.72547 8.59865 34,025 335 377 0
2018-01-16 09:30:33 GMT 41.72209 8.60073 34,025 335 378 0
2018-01-16 09:30:29 GMT 41.71532 8.60498 34,025 335 378 0
2018-01-16 09:30:26 GMT 41.71127 8.60753 34,025 335 378 0
2018-01-16 09:30:17 GMT 41.69763 8.61603 34,025 335 378 0
2018-01-16 09:30:12 GMT 41.68925 8.62127 34,025 335 378 0
2018-01-16 09:30:08 GMT 41.68180 8.62593 34,025 335 377 -64
2018-01-16 09:30:06 GMT 41.67952 8.62739 34,025 335 377 -64
2018-01-16 09:30:01 GMT 41.67206 8.63201 34,025 335 378 -64
2018-01-16 09:29:57 GMT 41.66486 8.63653 34,025 335 378 0
2018-01-16 09:29:53 GMT 41.65906 8.64012 34,025 335 378 0
2018-01-16 09:29:48 GMT 41.65071 8.64535 34,025 335 378 0
2018-01-16 09:29:46 GMT 41.64722 8.64752 34,025 335 379 0
2018-01-16 09:29:37 GMT 41.63310 8.65635 34,025 335 380 0
2018-01-16 09:29:34 GMT 41.62925 8.65876 34,025 335 380 0
2018-01-16 09:29:30 GMT 41.62296 8.66266 34,025 335 380 0
2018-01-16 09:29:27 GMT 41.61705 8.66630 34,025 335 380 0
2018-01-16 09:29:24 GMT 41.61309 8.66879 34,025 335 380 0
2018-01-16 09:29:22 GMT 41.60847 8.67171 34,025 335 380 0
2018-01-16 09:29:16 GMT 41.60038 8.67671 34,025 335 380 0
2018-01-16 09:29:12 GMT 41.59307 8.68124 34,025 336 381 0
2018-01-16 09:29:10 GMT 41.58847 8.68413 34,025 336 381 0
2018-01-16 09:29:06 GMT 41.58460 8.68655 34,025 336 381 0
2018-01-16 09:29:03 GMT 41.57990 8.68948 34,025 336 381 0
2018-01-16 09:29:00 GMT 41.57396 8.69318 34,025 336 381 0
2018-01-16 09:28:56 GMT 41.56760 8.69711 34,025 336 381 0
2018-01-16 09:28:51 GMT 41.55931 8.70223 34,025 336 381 0
2018-01-16 09:28:49 GMT 41.55702 8.70367 34,025 336 381 0
2018-01-16 09:28:46 GMT 41.55135 8.70716 34,025 336 381 0
2018-01-16 09:28:42 GMT 41.54624 8.71031 34,025 336 381 0
2018-01-16 09:28:38 GMT 41.53805 8.71542 34,025 336 381 0
2018-01-16 09:28:35 GMT 41.53450 8.71759 34,025 336 381 0
2018-01-16 09:28:31 GMT 41.52731 8.72208 34,000 336 381 0
2018-01-16 09:28:26 GMT 41.51817 8.72768 34,000 336 381 64
2018-01-16 09:28:22 GMT 41.51404 8.73026 34,000 336 381 64
2018-01-16 09:28:18 GMT 41.50784 8.73407 34,000 336 380 0
2018-01-16 09:28:15 GMT 41.50225 8.73752 34,000 336 381 64
2018-01-16 09:28:11 GMT 41.49632 8.74118 34,000 336 381 0
2018-01-16 09:28:05 GMT 41.48557 8.74786 34,000 336 381 0
2018-01-16 09:28:01 GMT 41.48051 8.75099 34,000 336 381 0
2018-01-16 09:27:55 GMT 41.46904 8.75810 34,000 336 379 0
2018-01-16 09:27:51 GMT 41.46343 8.76153 34,000 336 379 64
2018-01-16 09:27:47 GMT 41.45700 8.76549 34,000 336 379 64
2018-01-16 09:27:45 GMT 41.45365 8.76754 34,000 336 380 64
2018-01-16 09:27:43 GMT 41.45114 8.76913 34,000 336 380 0
2018-01-16 09:27:40 GMT 41.44688 8.77171 34,000 336 379 64
2018-01-16 09:27:33 GMT 41.43539 8.77882 34,000 335 379 64
2018-01-16 09:27:30 GMT 41.43024 8.78204 34,000 335 378 0
2018-01-16 09:27:27 GMT 41.42519 8.78519 34,000 335 378 0
2018-01-16 09:27:25 GMT 41.42050 8.78817 34,000 335 378 0
2018-01-16 09:27:23 GMT 41.41757 8.78996 34,000 335 378 0
2018-01-16 09:27:21 GMT 41.41604 8.79092 34,000 335 378 0
2018-01-16 09:27:13 GMT 41.40317 8.79893 34,000 335 378 64
2018-01-16 09:27:11 GMT 41.39993 8.80094 34,000 335 378 64
2018-01-16 09:27:05 GMT 41.39122 8.80637 33,975 335 378 64
2018-01-16 09:27:03 GMT 41.38715 8.80891 33,975 335 378 64
2018-01-16 09:27:00 GMT 41.38174 8.81226 33,975 335 378 0
2018-01-16 09:26:56 GMT 41.37648 8.81555 33,975 335 378 0
2018-01-16 09:26:52 GMT 41.37058 8.81921 33,975 335 377 0
2018-01-16 09:26:49 GMT 41.36464 8.82290 33,975 335 377 0
2018-01-16 09:26:45 GMT 41.35710 8.82758 33,975 336 377 0
2018-01-16 09:26:43 GMT 41.35446 8.82916 33,975 336 377 0
2018-01-16 09:26:38 GMT 41.34796 8.83319 33,975 336 377 64
2018-01-16 09:26:34 GMT 41.34013 8.83801 33,975 336 377 64
2018-01-16 09:26:31 GMT 41.33702 8.83997 33,975 336 377 64
2018-01-16 09:26:27 GMT 41.33080 8.84381 33,975 336 377 64
2018-01-16 09:26:23 GMT 41.32365 8.84815 33,975 336 377 64
2018-01-16 09:26:21 GMT 41.32095 8.84979 33,975 336 377 64
2018-01-16 09:26:16 GMT 41.31292 8.85479 33,975 336 377 0
2018-01-16 09:26:12 GMT 41.30521 8.85956 33,975 336 378 0
2018-01-16 09:26:08 GMT 41.30054 8.86243 33,975 336 378 0
2018-01-16 09:26:03 GMT 41.29152 8.86798 33,975 336 378 0
2018-01-16 09:26:01 GMT 41.28918 8.86940 33,975 336 377 0
2018-01-16 09:25:57 GMT 41.28314 8.87311 33,975 336 377 -64
2018-01-16 09:25:51 GMT 41.27261 8.87958 33,975 336 377 0
2018-01-16 09:25:47 GMT 41.26740 8.88275 33,975 336 377 0
2018-01-16 09:25:41 GMT 41.25627 8.88959 33,975 336 376 0
2018-01-16 09:25:35 GMT 41.24659 8.89555 33,975 336 376 64
2018-01-16 09:25:32 GMT 41.24313 8.89764 33,975 336 377 0
2018-01-16 09:25:30 GMT 41.23974 8.89974 33,975 336 378 0
2018-01-16 09:25:27 GMT 41.23480 8.90277 33,975 336 378 0
2018-01-16 09:25:21 GMT 41.22652 8.90784 33,975 336 378 -64
2018-01-16 09:25:19 GMT 41.22240 8.91040 33,975 336 378 -64
2018-01-16 09:25:16 GMT 41.21842 8.91285 33,975 336 378 -128
2018-01-16 09:25:12 GMT 41.21144 8.91709 33,975 336 378 0
2018-01-16 09:25:10 GMT 41.20734 8.91962 34,000 336 377 0
2018-01-16 09:25:05 GMT 41.19947 8.92446 34,000 336 377 0
2018-01-16 09:25:01 GMT 41.19384 8.92789 34,000 336 377 0
2018-01-16 09:24:59 GMT 41.19068 8.92982 34,000 336 377 0
2018-01-16 09:24:55 GMT 41.18504 8.93329 34,000 336 378 -64
2018-01-16 09:24:51 GMT 41.17809 8.93756 34,000 336 378 0
2018-01-16 09:24:49 GMT 41.17494 8.93950 34,000 336 378 -64
2018-01-16 09:24:44 GMT 41.16777 8.94387 34,000 336 377 0
2018-01-16 09:24:40 GMT 41.16098 8.94805 34,000 336 377 0
2018-01-16 09:24:38 GMT 41.15680 8.95062 34,000 336 377 0
2018-01-16 09:24:33 GMT 41.14929 8.95520 34,000 336 376 0
2018-01-16 09:24:30 GMT 41.14430 8.95819 34,000 337 376 0
2018-01-16 09:24:28 GMT 41.14119 8.96002 34,000 337 377 0
2018-01-16 09:24:21 GMT 41.13029 8.96600 34,000 339 376 0
2018-01-16 09:24:18 GMT 41.12527 8.96859 34,000 340 376 0
2018-01-16 09:24:12 GMT 41.11512 8.97333 34,025 344 375 -64
2018-01-16 09:24:10 GMT 41.11270 8.97439 34,025 343 375 -64
2018-01-16 09:24:08 GMT 41.10818 8.97632 34,025 344 375 -64
2018-01-16 09:24:01 GMT 41.09514 8.98126 34,025 346 375 0
2018-01-16 09:23:59 GMT 41.09431 8.98157 34,025 346 376 -64
2018-01-16 09:23:57 GMT 41.08980 8.98313 34,025 347 376 -64
2018-01-16 09:23:53 GMT 41.08305 8.98529 34,025 348 376 -64
2018-01-16 09:23:50 GMT 41.07914 8.98644 34,025 348 376 -64
2018-01-16 09:23:47 GMT 41.07411 8.98800 34,025 348 376 -64
2018-01-16 09:23:43 GMT 41.06442 8.99091 34,025 348 376 0
2018-01-16 09:23:40 GMT 41.06205 8.99162 34,025 348 376 0
2018-01-16 09:23:37 GMT 41.05660 8.99329 34,025 348 376 0
2018-01-16 09:23:35 GMT 41.05311 8.99437 34,050 348 376 0
2018-01-16 09:23:32 GMT 41.04781 8.99597 34,025 348 376 0
2018-01-16 09:23:29 GMT 41.04357 8.99724 34,050 348 376 0
2018-01-16 09:23:27 GMT 41.03910 8.99861 34,050 348 376 -64
2018-01-16 09:23:22 GMT 41.03197 9.00079 34,050 348 376 0
2018-01-16 09:23:20 GMT 41.02739 9.00214 34,050 348 376 64
2018-01-16 09:23:16 GMT 41.02146 9.00398 34,025 348 376 64
2018-01-16 09:23:13 GMT 41.01595 9.00562 34,025 348 376 64
2018-01-16 09:23:10 GMT 41.00981 9.00751 34,025 348 376 0
2018-01-16 09:23:06 GMT 41.00308 9.00952 34,025 348 376 0
2018-01-16 09:23:00 GMT 40.99196 9.01288 34,025 348 376 64
2018-01-16 09:22:55 GMT 40.98543 9.01484 34,025 348 375 64
2018-01-16 09:22:49 GMT 40.97509 9.01797 34,025 348 375 64
2018-01-16 09:22:45 GMT 40.96838 9.02002 34,025 348 375 0
2018-01-16 09:22:39 GMT 40.95754 9.02332 34,025 348 375 0
2018-01-16 09:22:35 GMT 40.95047 9.02546 34,000 348 375 0
2018-01-16 09:22:28 GMT 40.93932 9.02881 34,025 348 374 0
2018-01-16 09:22:24 GMT 40.93348 9.03057 34,025 348 374 0
2018-01-16 09:22:18 GMT 40.92307 9.03369 34,025 348 374 0
2018-01-16 09:22:15 GMT 40.91492 9.03613 34,025 348 374 0
2018-01-16 09:22:08 GMT 40.90634 9.03875 34,025 348 374 -64
2018-01-16 09:22:04 GMT 40.89861 9.04106 34,025 348 374 0
2018-01-16 09:21:58 GMT 40.88902 9.04393 34,025 348 374 -64
2018-01-16 09:21:53 GMT 40.88072 9.04645 34,025 348 374 -64
2018-01-16 09:21:48 GMT 40.87116 9.04932 34,025 348 375 -64
2018-01-16 09:21:44 GMT 40.86383 9.05149 34,025 348 375 -64
2018-01-16 09:21:37 GMT 40.85376 9.05450 34,025 348 375 -64
2018-01-16 09:21:32 GMT 40.84524 9.05707 34,025 348 375 -64
2018-01-16 09:21:27 GMT 40.83554 9.05994 34,050 348 374 0
2018-01-16 09:21:16 GMT 40.81821 9.06522 34,050 348 374 0
2018-01-16 09:21:13 GMT 40.81165 9.06714 34,050 348 374 0
2018-01-16 09:21:06 GMT 40.80038 9.07052 34,050 348 374 64
2018-01-16 09:21:02 GMT 40.79321 9.07271 34,050 348 374 64
2018-01-16 09:20:56 GMT 40.78344 9.07564 34,025 348 374 64
2018-01-16 09:20:52 GMT 40.77655 9.07770 34,025 348 374 128
2018-01-16 09:20:47 GMT 40.76633 9.08075 34,025 348 374 64
2018-01-16 09:20:44 GMT 40.76285 9.08179 34,025 348 374 64
2018-01-16 09:20:41 GMT 40.75781 9.08331 34,025 348 374 0
2018-01-16 09:20:36 GMT 40.74788 9.08630 34,000 348 373 64
2018-01-16 09:20:33 GMT 40.74452 9.08732 34,000 348 374 64
2018-01-16 09:20:31 GMT 40.74131 9.08825 34,000 348 374 64
2018-01-16 09:20:25 GMT 40.73069 9.09144 34,000 348 373 64
2018-01-16 09:20:20 GMT 40.72362 9.09356 34,000 348 372 0
2018-01-16 09:20:16 GMT 40.71707 9.09552 34,000 348 372 0
2018-01-16 09:20:14 GMT 40.71286 9.09680 34,000 348 372 0
2018-01-16 09:20:10 GMT 40.70599 9.09882 34,000 348 371 0
2018-01-16 09:20:06 GMT 40.69941 9.10080 34,000 348 371 -64
2018-01-16 09:20:03 GMT 40.69280 9.10280 34,000 348 370 -64
2018-01-16 09:20:01 GMT 40.68940 9.10380 34,000 348 370 -64
2018-01-16 09:19:56 GMT 40.68247 9.10586 34,000 348 370 -64
2018-01-16 09:19:53 GMT 40.67572 9.10785 34,000 348 370 -64
2018-01-16 09:19:50 GMT 40.67230 9.10889 34,000 348 369 -64
2018-01-16 09:19:45 GMT 40.66502 9.11108 34,025 348 369 -64
2018-01-16 09:19:43 GMT 40.66091 9.11228 34,025 348 369 -64
2018-01-16 09:19:39 GMT 40.65398 9.11435 34,025 348 369 -64
2018-01-16 09:19:35 GMT 40.64816 9.11609 34,025 348 369 -64
2018-01-16 09:19:33 GMT 40.64257 9.11772 34,025 348 369 0
2018-01-16 09:19:26 GMT 40.63159 9.12102 34,025 348 369 0
2018-01-16 09:19:18 GMT 40.61957 9.12463 34,025 348 369 -64
2018-01-16 09:19:15 GMT 40.61441 9.12614 34,025 348 370 -64
2018-01-16 09:19:12 GMT 40.60933 9.12764 34,025 348 370 -64
2018-01-16 09:19:08 GMT 40.60323 9.12946 34,025 348 370 64
2018-01-16 09:19:05 GMT 40.59695 9.13135 34,025 348 371 64
2018-01-16 09:19:01 GMT 40.58922 9.13370 34,025 348 371 64
2018-01-16 09:18:57 GMT 40.58482 9.13501 34,000 348 371 64
2018-01-16 09:18:55 GMT 40.58028 9.13632 34,000 348 371 128
2018-01-16 09:18:51 GMT 40.57443 9.13806 34,000 348 372 64
2018-01-16 09:18:45 GMT 40.56176 9.14187 34,000 348 371 0
2018-01-16 09:18:41 GMT 40.55695 9.14331 33,975 348 371 64
2018-01-16 09:18:38 GMT 40.55186 9.14484 33,975 348 371 64
2018-01-16 09:18:34 GMT 40.54596 9.14661 33,975 348 370 64
2018-01-16 09:18:28 GMT 40.53606 9.14955 33,975 348 368 64
2018-01-16 09:18:25 GMT 40.52852 9.15180 33,975 348 369 64
2018-01-16 09:18:16 GMT 40.51488 9.15582 33,975 348 368 64
2018-01-16 09:18:14 GMT 40.51250 9.15654 33,975 348 368 64
2018-01-16 09:18:07 GMT 40.50087 9.15997 33,950 348 367 64
2018-01-16 09:18:04 GMT 40.49501 9.16168 33,950 348 367 64
2018-01-16 09:17:57 GMT 40.48187 9.16559 33,950 348 366 -64
2018-01-16 09:17:54 GMT 40.47847 9.16666 33,950 348 366 -64
2018-01-16 09:17:48 GMT 40.46921 9.16940 33,950 348 366 0
2018-01-16 09:17:46 GMT 40.46608 9.17035 33,950 348 366 0
2018-01-16 09:17:44 GMT 40.46162 9.17165 33,950 348 366 -64
2018-01-16 09:17:37 GMT 40.45102 9.17480 33,950 348 365 0
2018-01-16 09:17:34 GMT 40.44443 9.17682 33,950 348 363 64
2018-01-16 09:17:23 GMT 40.42806 9.18164 33,950 348 363 0
2018-01-16 09:17:16 GMT 40.41563 9.18532 33,950 348 362 0
2018-01-16 09:17:13 GMT 40.41174 9.18646 33,950 348 362 0
2018-01-16 09:17:06 GMT 40.39796 9.19049 33,950 348 362 -64
2018-01-16 09:17:03 GMT 40.39454 9.19150 33,950 348 362 -64
2018-01-16 09:16:57 GMT 40.38496 9.19434 33,975 348 362 -128
2018-01-16 09:16:54 GMT 40.38076 9.19562 33,975 348 361 -64
2018-01-16 09:16:52 GMT 40.37750 9.19656 33,975 348 361 -64
2018-01-16 09:16:47 GMT 40.36852 9.19924 33,975 348 362 0
2018-01-16 09:16:45 GMT 40.36528 9.20020 33,975 348 362 -64
2018-01-16 09:16:43 GMT 40.36140 9.20130 33,975 348 362 0
2018-01-16 09:16:36 GMT 40.35136 9.20429 33,975 348 362 0
2018-01-16 09:16:36 GMT 40.35136 9.20429 33,975 348 362 0
2018-01-16 09:16:34 GMT 40.34729 9.20551 33,975 348 363 -64
2018-01-16 09:16:32 GMT 40.34436 9.20636 33,975 348 363 -64
2018-01-16 09:16:26 GMT 40.33495 9.20917 33,975 348 364 -64
2018-01-16 09:16:22 GMT 40.32756 9.21137 34,000 348 364 -128
2018-01-16 09:16:15 GMT 40.31703 9.21447 34,000 348 365 -64
2018-01-16 09:16:12 GMT 40.31042 9.21641 34,000 348 365 0
2018-01-16 09:16:04 GMT 40.29611 9.22058 34,000 348 365 0
2018-01-16 09:16:01 GMT 40.29385 9.22128 34,000 348 365 0
2018-01-16 09:15:52 GMT 40.27690 9.22621 34,000 348 366 -64
2018-01-16 09:15:44 GMT 40.26559 9.22951 34,000 348 365 -64
2018-01-16 09:15:41 GMT 40.25968 9.23126 34,025 348 366 -64
2018-01-16 09:15:33 GMT 40.24511 9.23557 34,025 348 365 0
2018-01-16 09:15:31 GMT 40.24278 9.23627 34,025 348 365 0
2018-01-16 09:15:21 GMT 40.22617 9.24115 34,025 348 366 -64
2018-01-16 09:15:11 GMT 40.20959 9.24599 34,050 348 367 -128
2018-01-16 09:15:01 GMT 40.19197 9.25122 34,050 348 367 0
2018-01-16 09:14:52 GMT 40.17920 9.25501 34,050 348 368 128
2018-01-16 09:14:50 GMT 40.17556 9.25611 34,050 348 368 64
2018-01-16 09:14:43 GMT 40.16360 9.25966 34,050 348 369 -64
2018-01-16 09:14:40 GMT 40.15814 9.26129 34,050 348 370 128
2018-01-16 09:14:33 GMT 40.14725 9.26453 34,025 348 370 64
2018-01-16 09:14:30 GMT 40.14130 9.26628 34,025 348 371 320
2018-01-16 09:14:22 GMT 40.12961 9.26971 34,000 348 372 320
2018-01-16 09:14:19 GMT 40.12363 9.27142 33,975 348 373 192
2018-01-16 09:14:15 GMT 40.11774 9.27315 33,950 348 375 0
2018-01-16 09:14:12 GMT 40.11257 9.27465 33,950 348 376 -64
2018-01-16 09:14:10 GMT 40.10680 9.27633 33,950 348 376 128
2018-01-16 09:14:05 GMT 40.09935 9.27852 33,950 348 377 64
2018-01-16 09:13:59 GMT 40.08944 9.28145 33,950 348 378 -128
2018-01-16 09:13:54 GMT 40.08179 9.28363 33,950 348 378 -192
2018-01-16 09:13:52 GMT 40.07747 9.28488 33,950 348 377 -320
2018-01-16 09:13:49 GMT 40.07235 9.28638 33,975 348 377 -192
2018-01-16 09:13:44 GMT 40.06444 9.28876 33,975 348 376 -256
2018-01-16 09:13:41 GMT 40.05699 9.29094 34,000 348 375 -128
2018-01-16 09:13:39 GMT 40.05487 9.29157 34,000 348 375 -192
2018-01-16 09:13:34 GMT 40.04686 9.29395 34,025 348 374 -64
2018-01-16 09:13:30 GMT 40.04004 9.29593 34,000 348 374 -128
2018-01-16 09:13:28 GMT 40.03752 9.29669 34,000 348 373 -64
2018-01-16 09:13:23 GMT 40.02957 9.29905 34,000 348 373 128
2018-01-16 09:13:21 GMT 40.02478 9.30043 34,000 348 371 -64
2018-01-16 09:13:18 GMT 40.02077 9.30157 34,000 348 371 0
2018-01-16 09:13:14 GMT 40.01285 9.30389 34,000 348 370 64
2018-01-16 09:13:08 GMT 40.00308 9.30673 34,000 348 370 64
2018-01-16 09:13:03 GMT 39.99442 9.30923 34,000 348 369 64
2018-01-16 09:12:57 GMT 39.98488 9.31204 34,000 348 369 0
2018-01-16 09:12:52 GMT 39.97660 9.31441 34,000 348 369 0
2018-01-16 09:12:47 GMT 39.96899 9.31665 34,000 348 369 -64
2018-01-16 09:12:43 GMT 39.95928 9.31953 34,025 348 369 0
2018-01-16 09:12:41 GMT 39.95835 9.31978 34,025 348 369 0
2018-01-16 09:12:37 GMT 39.95238 9.32153 34,025 348 369 -64
2018-01-16 09:12:31 GMT 39.94187 9.32465 34,025 348 369 -64
2018-01-16 09:12:28 GMT 39.93512 9.32658 34,025 348 369 0
2018-01-16 09:12:21 GMT 39.92339 9.33008 34,025 348 369 0
2018-01-16 09:12:17 GMT 39.91831 9.33154 34,025 348 368 0
2018-01-16 09:12:10 GMT 39.90669 9.33498 34,025 348 368 64
2018-01-16 09:12:07 GMT 39.90175 9.33641 34,025 348 368 0
2018-01-16 09:11:59 GMT 39.88866 9.34027 34,025 348 368 64
2018-01-16 09:11:57 GMT 39.88454 9.34148 34,025 348 369 0
2018-01-16 09:11:55 GMT 39.88106 9.34250 34,025 348 369 0
2018-01-16 09:11:50 GMT 39.87305 9.34483 34,025 348 369 0
2018-01-16 09:11:46 GMT 39.86728 9.34650 34,050 348 369 -64
2018-01-16 09:11:42 GMT 39.85995 9.34865 34,050 348 369 0
2018-01-16 09:11:38 GMT 39.85314 9.35065 34,050 348 368 -64
2018-01-16 09:11:36 GMT 39.85057 9.35140 34,050 348 368 0
2018-01-16 09:11:29 GMT 39.83844 9.35492 34,050 348 369 0
2018-01-16 09:11:26 GMT 39.83313 9.35647 34,025 348 369 0
2018-01-16 09:11:19 GMT 39.82123 9.35993 34,025 348 369 0
2018-01-16 09:11:16 GMT 39.81613 9.36139 34,025 348 369 0
2018-01-16 09:11:06 GMT 39.79926 9.36632 34,025 348 370 -64
2018-01-16 09:10:55 GMT 39.78205 9.37134 34,025 348 370 128
2018-01-16 09:10:48 GMT 39.76959 9.37492 34,000 348 371 64
2018-01-16 09:10:45 GMT 39.76483 9.37634 34,000 348 371 64
2018-01-16 09:10:37 GMT 39.75101 9.38035 34,000 348 372 64
2018-01-16 09:10:35 GMT 39.74748 9.38137 34,000 348 372 64
2018-01-16 09:10:25 GMT 39.73073 9.38621 34,000 348 371 128
2018-01-16 09:10:17 GMT 39.71688 9.39026 33,975 348 370 64
2018-01-16 09:10:15 GMT 39.71376 9.39117 33,975 348 370 64
2018-01-16 09:10:06 GMT 39.69952 9.39526 33,975 348 369 64
2018-01-16 09:10:04 GMT 39.69608 9.39630 33,975 348 368 64
2018-01-16 09:09:54 GMT 39.67955 9.40107 33,950 348 367 64
2018-01-16 09:09:44 GMT 39.66270 9.40597 33,950 348 366 64
2018-01-16 09:09:36 GMT 39.64957 9.40979 33,950 348 365 0
2018-01-16 09:09:34 GMT 39.64609 9.41080 33,950 348 365 0
2018-01-16 09:09:24 GMT 39.62869 9.41588 33,950 348 365 -64
2018-01-16 09:09:13 GMT 39.61198 9.42066 33,950 348 365 -64
2018-01-16 09:09:06 GMT 39.59929 9.42432 33,950 348 364 0
2018-01-16 09:09:04 GMT 39.59541 9.42543 33,975 348 364 0
2018-01-16 09:08:58 GMT 39.58708 9.42782 33,975 348 364 0
2018-01-16 09:08:52 GMT 39.57643 9.43091 33,950 348 364 64
2018-01-16 09:08:43 GMT 39.56149 9.43517 33,950 348 364 -64
2018-01-16 09:08:41 GMT 39.55921 9.43579 33,950 348 364 -64
2018-01-16 09:08:33 GMT 39.54469 9.44000 33,975 348 364 0
2018-01-16 09:08:31 GMT 39.54213 9.44078 33,975 348 365 0
2018-01-16 09:08:22 GMT 39.52718 9.44513 33,975 348 365 0
2018-01-16 09:08:19 GMT 39.52295 9.44633 33,975 348 366 -64
2018-01-16 09:08:10 GMT 39.50665 9.45105 34,000 348 366 -64
2018-01-16 09:07:59 GMT 39.48947 9.45599 34,000 348 366 0
2018-01-16 09:07:49 GMT 39.47282 9.46078 34,025 348 367 -64
2018-01-16 09:07:40 GMT 39.45813 9.46502 34,025 348 368 0
2018-01-16 09:07:38 GMT 39.45460 9.46606 34,025 348 368 0
2018-01-16 09:07:31 GMT 39.44292 9.46942 34,025 348 369 64
2018-01-16 09:07:29 GMT 39.43859 9.47070 34,025 348 369 64
2018-01-16 09:07:21 GMT 39.42577 9.47439 34,000 348 370 0
2018-01-16 09:07:18 GMT 39.42137 9.47565 34,000 348 370 -64
2018-01-16 09:07:11 GMT 39.40838 9.47937 34,025 348 370 -64
2018-01-16 09:07:08 GMT 39.40321 9.48084 34,025 348 370 -64
2018-01-16 09:07:02 GMT 39.39034 9.48455 34,025 348 369 -64
2018-01-16 09:06:57 GMT 39.38599 9.48578 34,025 348 369 -64
2018-01-16 09:06:51 GMT 39.37541 9.48878 34,025 348 368 -64
2018-01-16 09:06:47 GMT 39.36855 9.49076 34,025 348 368 -64
2018-01-16 09:06:41 GMT 39.35801 9.49377 34,025 348 368 -64
2018-01-16 09:06:31 GMT 39.34144 9.49854 34,050 348 369 -64
2018-01-16 09:06:20 GMT 39.32379 9.50354 34,050 348 369 0
2018-01-16 09:06:15 GMT 39.31581 9.50586 34,050 348 370 0
2018-01-16 09:06:10 GMT 39.30722 9.50830 34,050 348 370 0
2018-01-16 09:06:00 GMT 39.29069 9.51306 34,050 348 371 0
2018-01-16 09:05:57 GMT 39.28306 9.51526 34,050 348 372 0
2018-01-16 09:05:50 GMT 39.27328 9.51807 34,025 348 372 64
2018-01-16 09:05:44 GMT 39.26286 9.52106 34,025 348 372 0
2018-01-16 09:05:40 GMT 39.25603 9.52306 34,050 348 373 -64
2018-01-16 09:05:37 GMT 39.25113 9.52449 34,025 348 372 -64
2018-01-16 09:05:31 GMT 39.24130 9.52728 34,025 348 372 64
2018-01-16 09:05:29 GMT 39.23855 9.52808 34,025 348 372 128
2018-01-16 09:05:24 GMT 39.22906 9.53082 34,025 348 373 64
2018-01-16 09:05:20 GMT 39.22063 9.53320 34,000 348 373 64
2018-01-16 09:05:13 GMT 39.21123 9.53589 34,000 348 373 0
2018-01-16 09:05:09 GMT 39.20434 9.53784 34,000 348 373 -64
2018-01-16 09:05:03 GMT 39.19437 9.54073 34,000 348 373 -64
2018-01-16 09:04:53 GMT 39.17799 9.54541 34,025 348 372 0
2018-01-16 09:04:43 GMT 39.15960 9.55072 34,000 348 371 64
2018-01-16 09:04:37 GMT 39.14850 9.55387 34,000 348 370 0
2018-01-16 09:04:33 GMT 39.14291 9.55542 34,000 348 370 -64
2018-01-16 09:04:29 GMT 39.13591 9.55743 34,000 348 370 64
2018-01-16 09:04:21 GMT 39.12408 9.56079 34,000 348 369 0
2018-01-16 09:04:19 GMT 39.11887 9.56226 34,000 348 367 128
2018-01-16 09:04:10 GMT 39.10435 9.56635 34,000 348 367 128
2018-01-16 09:04:06 GMT 39.09810 9.56814 34,000 348 367 64
2018-01-16 09:04:01 GMT 39.08964 9.57056 33,975 348 368 -320
2018-01-16 09:03:58 GMT 39.08423 9.57214 34,000 348 368 -128
2018-01-16 09:03:54 GMT 39.07897 9.57361 34,000 348 369 -192
2018-01-16 09:03:47 GMT 39.06738 9.57690 34,000 348 370 -64
2018-01-16 09:03:38 GMT 39.05072 9.58166 34,025 348 369 -128
2018-01-16 09:03:27 GMT 39.03317 9.58667 34,000 348 371 0
2018-01-16 09:03:15 GMT 39.01352 9.59229 34,000 348 375 -64
2018-01-16 09:03:06 GMT 38.99704 9.59699 34,025 348 378 -320
2018-01-16 09:02:57 GMT 38.98135 9.60144 34,050 348 376 -64
2018-01-16 09:02:55 GMT 38.97847 9.60223 34,050 348 376 0
2018-01-16 09:02:46 GMT 38.96388 9.60641 34,050 348 375 192
2018-01-16 09:02:43 GMT 38.95929 9.60773 34,050 348 375 128
2018-01-16 09:02:37 GMT 38.94695 9.61121 34,050 348 376 0
2018-01-16 09:02:26 GMT 38.92898 9.61633 34,050 348 377 0
2018-01-16 09:02:16 GMT 38.91184 9.62122 34,050 348 377 -128
2018-01-16 09:02:13 GMT 38.90552 9.62299 34,050 348 378 -128
2018-01-16 09:02:06 GMT 38.89505 9.62598 34,075 348 376 64
2018-01-16 09:02:03 GMT 38.88963 9.62749 34,075 348 375 128
2018-01-16 09:01:55 GMT 38.87718 9.63101 34,050 348 375 256
2018-01-16 09:01:45 GMT 38.85965 9.63597 34,000 348 375 64
2018-01-16 09:01:40 GMT 38.85133 9.63831 34,000 348 376 0
2018-01-16 09:01:35 GMT 38.84244 9.64081 34,000 348 376 -64
2018-01-16 09:01:31 GMT 38.83589 9.64271 34,000 348 375 0
2018-01-16 09:01:25 GMT 38.82385 9.64612 34,000 348 374 0
2018-01-16 09:01:19 GMT 38.81558 9.64844 34,000 348 373 0
2018-01-16 09:01:15 GMT 38.80804 9.65057 34,000 348 372 64
2018-01-16 09:01:10 GMT 38.80013 9.65283 34,000 348 372 -64
2018-01-16 09:01:04 GMT 38.79057 9.65555 34,000 348 373 -64
2018-01-16 09:00:59 GMT 38.78224 9.65788 34,000 348 373 -128
2018-01-16 09:00:54 GMT 38.77364 9.66034 34,000 348 372 0
2018-01-16 09:00:49 GMT 38.76549 9.66260 34,000 348 372 64
2018-01-16 09:00:44 GMT 38.75604 9.66522 34,000 348 372 0
2018-01-16 09:00:39 GMT 38.74837 9.66737 34,000 348 372 0
2018-01-16 09:00:34 GMT 38.73967 9.66988 34,000 348 372 0
2018-01-16 09:00:26 GMT 38.72649 9.67358 34,000 348 372 -64
2018-01-16 09:00:24 GMT 38.72183 9.67487 34,000 348 373 64
2018-01-16 09:00:13 GMT 38.70451 9.67975 34,000 348 372 -64
2018-01-16 09:00:03 GMT 38.68552 9.68518 34,000 348 372 64
2018-01-16 08:59:53 GMT 38.66981 9.68964 34,000 348 373 -64
2018-01-16 08:59:45 GMT 38.65661 9.69336 34,000 348 374 -256
2018-01-16 08:59:43 GMT 38.65297 9.69440 34,000 348 374 -576
2018-01-16 08:59:36 GMT 38.64068 9.69782 34,025 348 373 64
2018-01-16 08:59:33 GMT 38.63415 9.69967 34,025 348 373 192
2018-01-16 08:59:26 GMT 38.62397 9.70252 34,000 348 374 320
2018-01-16 08:59:23 GMT 38.61885 9.70398 33,975 348 376 64
2018-01-16 08:59:12 GMT 38.60088 9.70898 34,000 348 381 -256
2018-01-16 08:59:02 GMT 38.58343 9.71381 34,025 348 378 128
2018-01-16 08:58:52 GMT 38.56532 9.71887 33,975 348 380 128
2018-01-16 08:58:42 GMT 38.54809 9.72376 34,000 348 379 -192
2018-01-16 08:58:31 GMT 38.53084 9.72857 33,975 348 376 384
2018-01-16 08:58:21 GMT 38.51374 9.73340 33,900 348 375 768
2018-01-16 08:58:11 GMT 38.49591 9.73840 33,800 348 374 768
2018-01-16 08:58:01 GMT 38.47884 9.74314 33,600 348 375 1216
2018-01-16 08:57:51 GMT 38.46153 9.74798 33,425 348 375 832
2018-01-16 08:57:41 GMT 38.44279 9.75324 33,300 348 375 640
2018-01-16 08:57:30 GMT 38.42679 9.75765 33,175 348 374 1024
2018-01-16 08:57:21 GMT 38.40976 9.76240 32,925 348 376 1984
2018-01-16 08:57:10 GMT 38.39265 9.76714 32,525 348 381 2688
2018-01-16 08:57:00 GMT 38.37451 9.77222 32,125 348 387 2176
2018-01-16 08:56:50 GMT 38.35681 9.77717 31,775 348 393 1728
2018-01-16 08:56:39 GMT 38.33772 9.78255 31,525 348 395 832
2018-01-16 08:56:29 GMT 38.31995 9.78753 31,350 348 395 768
2018-01-16 08:56:19 GMT 38.30174 9.79270 31,250 348 394 576
2018-01-16 08:56:09 GMT 38.28405 9.79766 31,100 348 394 1472
2018-01-16 08:55:59 GMT 38.26543 9.80284 30,900 348 395 960
2018-01-16 08:55:49 GMT 38.24587 9.80822 30,725 348 395 1088
2018-01-16 08:55:39 GMT 38.22977 9.81272 30,525 348 395 1216
2018-01-16 08:55:28 GMT 38.21118 9.81786 30,325 348 396 1024
2018-01-16 08:55:18 GMT 38.19253 9.82303 30,175 348 395 960
2018-01-16 08:55:08 GMT 38.17502 9.82791 29,975 348 395 1664
2018-01-16 08:54:58 GMT 38.15668 9.83300 29,650 348 399 1664
2018-01-16 08:54:47 GMT 38.13789 9.83826 29,425 348 400 1024
2018-01-16 08:54:37 GMT 38.11972 9.84328 29,300 348 399 576
2018-01-16 08:54:27 GMT 38.10132 9.84837 29,200 348 396 512
2018-01-16 08:54:17 GMT 38.08269 9.85357 29,100 348 395 896
2018-01-16 08:54:07 GMT 38.06520 9.85842 28,925 348 394 960
2018-01-16 08:53:56 GMT 38.04561 9.86381 28,750 348 393 1024
2018-01-16 08:53:46 GMT 38.02876 9.86847 28,575 348 394 1280
2018-01-16 08:53:36 GMT 38.01065 9.87349 28,400 348 393 768
2018-01-16 08:53:26 GMT 37.99228 9.87852 28,275 348 390 1024
2018-01-16 08:53:16 GMT 37.97471 9.88334 28,100 348 389 1024
2018-01-16 08:53:05 GMT 37.95602 9.88846 27,925 348 387 768
2018-01-16 08:52:55 GMT 37.93854 9.89319 27,800 349 386 832
2018-01-16 08:52:45 GMT 37.91940 9.89827 27,650 349 383 576
2018-01-16 08:52:34 GMT 37.90153 9.90292 27,475 349 381 1600
2018-01-16 08:52:30 GMT 37.89240 9.90531 27,300 346 389 1088
2018-01-16 08:52:24 GMT 37.88329 9.90768 27,100 349 383 2560
2018-01-16 08:52:14 GMT 37.86626 9.91224 26,750 348 388 1984
2018-01-16 08:52:07 GMT 37.85339 9.91610 26,550 346 389 1280
2018-01-16 08:52:05 GMT 37.84840 9.91767 26,500 346 389 1152
2018-01-16 08:51:57 GMT 37.83595 9.92165 26,350 346 388 960
2018-01-16 08:51:54 GMT 37.83083 9.92328 26,300 346 388 960
2018-01-16 08:51:49 GMT 37.82089 9.92644 26,200 346 386 960
2018-01-16 08:51:46 GMT 37.81834 9.92728 26,200 346 386 1024
2018-01-16 08:51:44 GMT 37.81338 9.92884 26,150 346 385 1024
2018-01-16 08:51:37 GMT 37.80020 9.93299 26,000 346 384 1152
2018-01-16 08:51:35 GMT 37.79772 9.93379 25,975 346 384 1088
2018-01-16 08:51:33 GMT 37.79535 9.93456 25,950 346 384 1024
2018-01-16 08:51:27 GMT 37.78249 9.93865 25,825 346 382 1024
2018-01-16 08:51:23 GMT 37.77817 9.94000 25,775 346 382 1280
2018-01-16 08:51:16 GMT 37.76355 9.94466 25,625 346 381 1088
2018-01-16 08:51:14 GMT 37.76108 9.94543 25,600 346 380 1024
2018-01-16 08:51:04 GMT 37.74414 9.95081 25,400 346 378 1280
2018-01-16 08:50:54 GMT 37.72627 9.95648 25,200 346 377 1216
2018-01-16 08:50:42 GMT 37.70691 9.96267 24,975 346 375 960
2018-01-16 08:50:32 GMT 37.68934 9.96818 24,800 346 373 1024
2018-01-16 08:50:21 GMT 37.67070 9.97413 24,600 346 370 1216
2018-01-16 08:50:10 GMT 37.65234 9.97991 24,325 346 369 1984
2018-01-16 08:50:03 GMT 37.64154 9.98336 24,100 346 371 2240
2018-01-16 08:49:59 GMT 37.63458 9.98558 23,950 346 371 2304
2018-01-16 08:49:52 GMT 37.62445 9.98878 23,725 347 373 2048
2018-01-16 08:49:48 GMT 37.61623 9.99136 23,575 347 373 1792
2018-01-16 08:49:37 GMT 37.59777 9.99714 23,300 347 372 1152
2018-01-16 08:49:24 GMT 37.57641 10.00389 23,075 346 366 1152
2018-01-16 08:49:14 GMT 37.55904 10.00932 22,850 347 363 1280
2018-01-16 08:49:03 GMT 37.54205 10.01469 22,625 346 361 1472
2018-01-16 08:48:53 GMT 37.52531 10.01994 22,375 347 359 1792
2018-01-16 08:48:42 GMT 37.50760 10.02555 21,975 346 360 3008
2018-01-16 08:48:31 GMT 37.48973 10.03123 21,450 346 365 2304
2018-01-16 08:48:20 GMT 37.47148 10.03703 21,050 346 365 2176
2018-01-16 08:48:09 GMT 37.45309 10.04282 20,725 346 365 1216
2018-01-16 08:47:58 GMT 37.43545 10.04837 20,500 346 359 1472
2018-01-16 08:47:47 GMT 37.41536 10.05471 20,175 346 357 2048
2018-01-16 08:47:36 GMT 37.40118 10.05912 19,825 346 358 2496
2018-01-16 08:47:34 GMT 37.39364 10.06151 19,650 347 359 2496
2018-01-16 08:47:26 GMT 37.38508 10.06419 19,425 347 360 2176
2018-01-16 08:47:22 GMT 37.37590 10.06704 19,250 347 359 1472
2018-01-16 08:47:13 GMT 37.36441 10.07066 19,100 346 356 896
2018-01-16 08:47:09 GMT 37.35375 10.07400 18,975 347 353 1344
2018-01-16 08:47:05 GMT 37.35127 10.07481 18,950 347 352 1472
2018-01-16 08:46:54 GMT 37.33479 10.07996 18,625 346 350 2496
2018-01-16 08:46:45 GMT 37.31693 10.08557 18,175 347 351 2176
2018-01-16 08:46:32 GMT 37.29644 10.09202 17,775 347 348 1856
2018-01-16 08:46:21 GMT 37.27858 10.09760 17,400 346 345 2048
2018-01-16 08:46:13 GMT 37.26993 10.10029 17,225 346 345 2112
2018-01-16 08:46:09 GMT 37.25999 10.10342 17,000 347 344 1728
2018-01-16 08:46:02 GMT 37.25194 10.10593 16,875 347 341 1408
2018-01-16 08:45:56 GMT 37.24021 10.10957 16,700 347 337 1536
2018-01-16 08:45:51 GMT 37.23653 10.11077 16,625 347 336 1792
2018-01-16 08:45:42 GMT 37.22296 10.11496 16,325 347 334 2752
2018-01-16 08:45:31 GMT 37.20259 10.12133 15,650 347 336 3264
2018-01-16 08:45:21 GMT 37.19082 10.12498 15,275 347 338 2240
2018-01-16 08:45:19 GMT 37.18649 10.12629 15,175 347 338 2240
2018-01-16 08:45:10 GMT 37.17410 10.13017 14,850 347 337 2560
2018-01-16 08:45:08 GMT 37.16771 10.13214 14,675 347 337 2560
2018-01-16 08:44:56 GMT 37.15069 10.13745 14,250 347 335 2432
2018-01-16 08:44:43 GMT 37.13165 10.14331 13,675 347 336 3072
2018-01-16 08:44:34 GMT 37.11642 10.14802 13,200 347 336 2432
2018-01-16 08:44:22 GMT 37.09967 10.15322 12,825 347 332 2048
2018-01-16 08:44:10 GMT 37.08339 10.15820 12,400 347 329 2944
2018-01-16 08:44:00 GMT 37.06691 10.16329 11,800 347 331 3072
2018-01-16 08:43:50 GMT 37.04939 10.16874 11,300 347 329 1920
2018-01-16 08:43:38 GMT 37.03400 10.17346 11,050 346 321 896
2018-01-16 08:43:27 GMT 37.01788 10.17848 10,850 346 309 1024
2018-01-16 08:43:16 GMT 37.00273 10.18322 10,650 347 297 1152
2018-01-16 08:43:05 GMT 36.98850 10.18767 10,450 346 284 1344
2018-01-16 08:42:54 GMT 36.97430 10.19204 10,100 347 276 2496
2018-01-16 08:42:41 GMT 36.95871 10.19687 9,550 347 273 2624
2018-01-16 08:42:32 GMT 36.94720 10.20045 9,150 347 269 2560
2018-01-16 08:42:21 GMT 36.93393 10.20449 8,650 347 267 3136
2018-01-16 08:42:10 GMT 36.92063 10.20851 8,075 347 268 3328
2018-01-16 08:41:58 GMT 36.90615 10.21293 7,425 347 268 2816
2018-01-16 08:41:47 GMT 36.89337 10.21688 7,025 346 263 1856
2018-01-16 08:41:37 GMT 36.88162 10.22063 6,775 346 251 1088
2018-01-16 08:41:26 GMT 36.86939 10.22453 6,575 346 235 1088
2018-01-16 08:41:15 GMT 36.85801 10.22833 6,275 344 223 2560
2018-01-16 08:41:04 GMT 36.84750 10.23319 5,800 334 216 2624
2018-01-16 08:40:53 GMT 36.83776 10.23955 5,250 331 214 3072

Making use of Plane Finder data

You are free to use the raw flight data, aircraft information and images provided in this report for your own purposes provided the data is correctly attributed to Plane Finder. We ask that you please credit Plane Finder and link to planefinder.net in close proximity to the content.

Optionally one of the following logos (no smaller then 150x24px) can be used and must link to planefinder.net

Embedding the Plane Finder map

You are welcome to embed the Plane Finder playback map on your website to offer visitors a more interactive experience. We suggest using the following HTML code:

<iframe src="//planefinder.net/data/report/TU750-TS-IMP-7700-squawk-2018-01-16/map" width="800" height="600" seamless="seamless"></iframe>

Where our data comes from

Plane Finder has a global network of data feeds and antenna radars that receive data broadcast directly from aircraft. The primary technologies used are ADS-B and MLAT. We also show feeds from the FAA and a FLARM glider feed.

Click here to find out more about the Plane Finder network.

How we collect our data